<?xml version='1.0' encoding='UTF-8'?><gpx version="1.1" creator="JPX - https://github.com/jenetics/jpx" xmlns="http://www.topografix.com/GPX/1/1"><trk><trkseg><trkpt lat="45.6613717" lon="10.76892"><ele>920.0000000000001</ele><time>2026-04-25T12:48:16.092Z</time></trkpt><trkpt lat="45.661375" lon="10.769015"><ele>920.0</ele><time>2026-04-25T12:48:22.091Z</time></trkpt><trkpt lat="45.66147" lon="10.76908"><ele>920.0</ele><time>2026-04-25T12:48:24.091Z</time></trkpt><trkpt lat="45.6615283" lon="10.7691233"><ele>920.0</ele><time>2026-04-25T12:48:25.091Z</time></trkpt><trkpt lat="45.6615933" lon="10.7691717"><ele>920.0000000000001</ele><time>2026-04-25T12:48:26.092Z</time></trkpt><trkpt lat="45.6616667" lon="10.769215"><ele>920.0</ele><time>2026-04-25T12:48:27.092Z</time></trkpt><trkpt lat="45.661745" lon="10.76925"><ele>920.0</ele><time>2026-04-25T12:48:28.092Z</time></trkpt><trkpt lat="45.6618267" lon="10.76929"><ele>920.0</ele><time>2026-04-25T12:48:29.091Z</time></trkpt><trkpt lat="45.6619233" lon="10.7693367"><ele>920.0</ele><time>2026-04-25T12:48:30.092Z</time></trkpt><trkpt lat="45.662015" lon="10.769395"><ele>920.0</ele><time>2026-04-25T12:48:31.092Z</time></trkpt><trkpt lat="45.6621083" lon="10.7694367"><ele>920.0</ele><time>2026-04-25T12:48:32.092Z</time></trkpt><trkpt lat="45.6622083" lon="10.769495"><ele>921.25</ele><time>2026-04-25T12:48:33.092Z</time></trkpt><trkpt lat="45.662325" lon="10.7695633"><ele>922.5</ele><time>2026-04-25T12:48:34.092Z</time></trkpt><trkpt lat="45.662445" lon="10.769635"><ele>923.75</ele><time>2026-04-25T12:48:35.092Z</time></trkpt><trkpt lat="45.6625633" lon="10.76971"><ele>925.0</ele><time>2026-04-25T12:48:36.091Z</time></trkpt><trkpt lat="45.6626817" lon="10.76979"><ele>925.25</ele><time>2026-04-25T12:48:37.091Z</time></trkpt><trkpt lat="45.662785" lon="10.7698783"><ele>925.5</ele><time>2026-04-25T12:48:38.092Z</time></trkpt><trkpt lat="45.6628933" lon="10.7699783"><ele>925.75</ele><time>2026-04-25T12:48:39.092Z</time></trkpt><trkpt lat="45.6630117" lon="10.7700983"><ele>926.0</ele><time>2026-04-25T12:48:40.092Z</time></trkpt><trkpt lat="45.6631233" lon="10.770215"><ele>926.0</ele><time>2026-04-25T12:48:41.092Z</time></trkpt><trkpt lat="45.6632483" lon="10.7703417"><ele>926.0</ele><time>2026-04-25T12:48:42.092Z</time></trkpt><trkpt lat="45.66337" lon="10.770455"><ele>926.0</ele><time>2026-04-25T12:48:43.091Z</time></trkpt><trkpt lat="45.6634967" lon="10.7705633"><ele>926.0</ele><time>2026-04-25T12:48:44.092Z</time></trkpt><trkpt lat="45.6636133" lon="10.7706767"><ele>926.25</ele><time>2026-04-25T12:48:45.092Z</time></trkpt><trkpt lat="45.663725" lon="10.770785"><ele>926.5</ele><time>2026-04-25T12:48:46.092Z</time></trkpt><trkpt lat="45.6638367" lon="10.7709067"><ele>926.75</ele><time>2026-04-25T12:48:47.092Z</time></trkpt><trkpt lat="45.66394" lon="10.7710517"><ele>927.0</ele><time>2026-04-25T12:48:48.091Z</time></trkpt><trkpt lat="45.6640217" lon="10.771215"><ele>933.0</ele><time>2026-04-25T12:48:49.092Z</time></trkpt><trkpt lat="45.663725" lon="10.7722767"><ele>933.0</ele><time>2026-04-25T12:48:52.664Z</time></trkpt><trkpt lat="45.6641683" lon="10.7721617"><ele>933.0</ele><time>2026-04-25T12:48:53.592Z</time></trkpt><trkpt lat="45.6643583" lon="10.77233"><ele>933.0</ele><time>2026-04-25T12:48:54.592Z</time></trkpt><trkpt lat="45.66453" lon="10.7725667"><ele>935.0</ele><time>2026-04-25T12:48:56.092Z</time></trkpt><trkpt lat="45.664595" lon="10.7727483"><ele>937.0</ele><time>2026-04-25T12:48:57.091Z</time></trkpt><trkpt lat="45.6646333" lon="10.77293"><ele>939.0</ele><time>2026-04-25T12:48:58.092Z</time></trkpt><trkpt lat="45.6646517" lon="10.7731167"><ele>941.0</ele><time>2026-04-25T12:48:59.092Z</time></trkpt><trkpt lat="45.6646533" lon="10.7732833"><ele>941.0</ele><time>2026-04-25T12:49:00.092Z</time></trkpt><trkpt lat="45.66465" lon="10.7734533"><ele>940.9999999999999</ele><time>2026-04-25T12:49:01.092Z</time></trkpt><trkpt lat="45.6646617" lon="10.77361"><ele>940.9999999999999</ele><time>2026-04-25T12:49:02.092Z</time></trkpt><trkpt lat="45.6646933" lon="10.7737183"><ele>941.0</ele><time>2026-04-25T12:49:03.092Z</time></trkpt><trkpt lat="45.6647417" lon="10.7738183"><ele>941.0</ele><time>2026-04-25T12:49:04.092Z</time></trkpt><trkpt lat="45.664805" lon="10.7739017"><ele>941.0</ele><time>2026-04-25T12:49:05.091Z</time></trkpt><trkpt lat="45.6648733" lon="10.7739733"><ele>940.9999999999999</ele><time>2026-04-25T12:49:06.091Z</time></trkpt><trkpt lat="45.6649467" lon="10.7740583"><ele>940.9999999999999</ele><time>2026-04-25T12:49:07.092Z</time></trkpt><trkpt lat="45.6650183" lon="10.7741567"><ele>941.0</ele><time>2026-04-25T12:49:08.092Z</time></trkpt><trkpt lat="45.665085" lon="10.774285"><ele>941.0</ele><time>2026-04-25T12:49:09.092Z</time></trkpt><trkpt lat="45.6651383" lon="10.7744233"><ele>941.0</ele><time>2026-04-25T12:49:10.092Z</time></trkpt><trkpt lat="45.6651867" lon="10.7746017"><ele>941.0</ele><time>2026-04-25T12:49:11.092Z</time></trkpt><trkpt lat="45.665235" lon="10.774775"><ele>941.0</ele><time>2026-04-25T12:49:12.092Z</time></trkpt><trkpt lat="45.6652833" lon="10.7749467"><ele>941.0</ele><time>2026-04-25T12:49:13.092Z</time></trkpt><trkpt lat="45.6653417" lon="10.77515"><ele>946.3333333333334</ele><time>2026-04-25T12:49:14.092Z</time></trkpt><trkpt lat="45.6654133" lon="10.7753667"><ele>951.6666666666667</ele><time>2026-04-25T12:49:15.092Z</time></trkpt><trkpt lat="45.6654733" lon="10.7755633"><ele>957.0</ele><time>2026-04-25T12:49:16.092Z</time></trkpt><trkpt lat="45.6655383" lon="10.7757533"><ele>957.0</ele><time>2026-04-25T12:49:17.091Z</time></trkpt><trkpt lat="45.665595" lon="10.7759467"><ele>957.0</ele><time>2026-04-25T12:49:18.092Z</time></trkpt><trkpt lat="45.6656733" lon="10.7761283"><ele>957.0</ele><time>2026-04-25T12:49:19.092Z</time></trkpt><trkpt lat="45.6657617" lon="10.7762967"><ele>957.0</ele><time>2026-04-25T12:49:20.092Z</time></trkpt><trkpt lat="45.6658633" lon="10.7764433"><ele>957.5</ele><time>2026-04-25T12:49:21.092Z</time></trkpt><trkpt lat="45.6659767" lon="10.77656"><ele>958.0</ele><time>2026-04-25T12:49:22.091Z</time></trkpt><trkpt lat="45.6661083" lon="10.7766633"><ele>958.5</ele><time>2026-04-25T12:49:23.092Z</time></trkpt><trkpt lat="45.6662417" lon="10.7767517"><ele>959.0</ele><time>2026-04-25T12:49:24.092Z</time></trkpt><trkpt lat="45.666385" lon="10.776825"><ele>956.6666666666667</ele><time>2026-04-25T12:49:25.092Z</time></trkpt><trkpt lat="45.6665267" lon="10.7769"><ele>954.3333333333333</ele><time>2026-04-25T12:49:26.092Z</time></trkpt><trkpt lat="45.66669" lon="10.776935"><ele>952.0</ele><time>2026-04-25T12:49:27.091Z</time></trkpt><trkpt lat="45.6668483" lon="10.77694"><ele>953.0</ele><time>2026-04-25T12:49:28.092Z</time></trkpt><trkpt lat="45.6669967" lon="10.7769733"><ele>954.0</ele><time>2026-04-25T12:49:29.092Z</time></trkpt><trkpt lat="45.6671583" lon="10.7770117"><ele>955.0</ele><time>2026-04-25T12:49:30.092Z</time></trkpt><trkpt lat="45.66731" lon="10.777045"><ele>955.0</ele><time>2026-04-25T12:49:31.092Z</time></trkpt><trkpt lat="45.6674533" lon="10.7770883"><ele>955.0</ele><time>2026-04-25T12:49:32.091Z</time></trkpt><trkpt lat="45.6675883" lon="10.7771483"><ele>955.0</ele><time>2026-04-25T12:49:33.092Z</time></trkpt><trkpt lat="45.6677283" lon="10.7772033"><ele>955.0</ele><time>2026-04-25T12:49:34.092Z</time></trkpt><trkpt lat="45.6678733" lon="10.77724"><ele>957.75</ele><time>2026-04-25T12:49:35.092Z</time></trkpt><trkpt lat="45.66801" lon="10.7772467"><ele>960.5</ele><time>2026-04-25T12:49:36.092Z</time></trkpt><trkpt lat="45.6681433" lon="10.7772767"><ele>963.25</ele><time>2026-04-25T12:49:37.092Z</time></trkpt><trkpt lat="45.6682667" lon="10.77734"><ele>966.0</ele><time>2026-04-25T12:49:38.091Z</time></trkpt><trkpt lat="45.6683933" lon="10.777445"><ele>966.0</ele><time>2026-04-25T12:49:39.092Z</time></trkpt><trkpt lat="45.6685233" lon="10.77756"><ele>966.0</ele><time>2026-04-25T12:49:40.092Z</time></trkpt><trkpt lat="45.6686417" lon="10.777695"><ele>966.0</ele><time>2026-04-25T12:49:41.092Z</time></trkpt><trkpt lat="45.6687333" lon="10.777845"><ele>966.0</ele><time>2026-04-25T12:49:42.092Z</time></trkpt><trkpt lat="45.6688317" lon="10.77799"><ele>968.0</ele><time>2026-04-25T12:49:43.092Z</time></trkpt><trkpt lat="45.668925" lon="10.778135"><ele>970.0</ele><time>2026-04-25T12:49:44.091Z</time></trkpt><trkpt lat="45.6690117" lon="10.7783"><ele>972.0</ele><time>2026-04-25T12:49:45.092Z</time></trkpt><trkpt lat="45.6690833" lon="10.7784817"><ele>974.0</ele><time>2026-04-25T12:49:46.091Z</time></trkpt><trkpt lat="45.6691367" lon="10.7786817"><ele>974.25</ele><time>2026-04-25T12:49:47.092Z</time></trkpt><trkpt lat="45.66918" lon="10.77888"><ele>974.5</ele><time>2026-04-25T12:49:48.092Z</time></trkpt><trkpt lat="45.6692383" lon="10.779065"><ele>974.75</ele><time>2026-04-25T12:49:49.091Z</time></trkpt><trkpt lat="45.6693033" lon="10.7792467"><ele>975.0</ele><time>2026-04-25T12:49:50.092Z</time></trkpt><trkpt lat="45.6693817" lon="10.7794267"><ele>980.0</ele><time>2026-04-25T12:49:51.092Z</time></trkpt><trkpt lat="45.66947" lon="10.77957"><ele>985.0</ele><time>2026-04-25T12:49:52.092Z</time></trkpt><trkpt lat="45.669565" lon="10.7797067"><ele>990.0</ele><time>2026-04-25T12:49:53.092Z</time></trkpt><trkpt lat="45.6696433" lon="10.7798633"><ele>995.0</ele><time>2026-04-25T12:49:54.092Z</time></trkpt><trkpt lat="45.6696933" lon="10.78005"><ele>993.75</ele><time>2026-04-25T12:49:55.092Z</time></trkpt><trkpt lat="45.6697367" lon="10.7802317"><ele>992.5</ele><time>2026-04-25T12:49:56.091Z</time></trkpt><trkpt lat="45.6697883" lon="10.7804033"><ele>991.25</ele><time>2026-04-25T12:49:57.092Z</time></trkpt><trkpt lat="45.6698683" lon="10.780555"><ele>990.0</ele><time>2026-04-25T12:49:58.092Z</time></trkpt><trkpt lat="45.6699733" lon="10.7806967"><ele>990.0</ele><time>2026-04-25T12:49:59.092Z</time></trkpt><trkpt lat="45.670055" lon="10.7808667"><ele>990.0</ele><time>2026-04-25T12:50:00.091Z</time></trkpt><trkpt lat="45.6701183" lon="10.7810583"><ele>990.0</ele><time>2026-04-25T12:50:01.091Z</time></trkpt><trkpt lat="45.6701533" lon="10.7812583"><ele>990.0</ele><time>2026-04-25T12:50:02.092Z</time></trkpt><trkpt lat="45.6702083" lon="10.78144"><ele>991.0</ele><time>2026-04-25T12:50:03.092Z</time></trkpt><trkpt lat="45.6702933" lon="10.781615"><ele>992.0</ele><time>2026-04-25T12:50:04.091Z</time></trkpt><trkpt lat="45.670385" lon="10.7817683"><ele>993.0</ele><time>2026-04-25T12:50:05.091Z</time></trkpt><trkpt lat="45.67049" lon="10.78192"><ele>994.0</ele><time>2026-04-25T12:50:06.092Z</time></trkpt><trkpt lat="45.6706" lon="10.7820533"><ele>994.0</ele><time>2026-04-25T12:50:07.092Z</time></trkpt><trkpt lat="45.67073" lon="10.782165"><ele>994.0</ele><time>2026-04-25T12:50:08.092Z</time></trkpt><trkpt lat="45.6708567" lon="10.782255"><ele>994.0</ele><time>2026-04-25T12:50:09.091Z</time></trkpt><trkpt lat="45.6709917" lon="10.7823233"><ele>994.0</ele><time>2026-04-25T12:50:10.092Z</time></trkpt><trkpt lat="45.6711217" lon="10.7824033"><ele>994.75</ele><time>2026-04-25T12:50:11.091Z</time></trkpt><trkpt lat="45.6712667" lon="10.7824667"><ele>995.5</ele><time>2026-04-25T12:50:12.092Z</time></trkpt><trkpt lat="45.6713983" lon="10.782445"><ele>996.25</ele><time>2026-04-25T12:50:13.092Z</time></trkpt><trkpt lat="45.671525" lon="10.7823817"><ele>997.0</ele><time>2026-04-25T12:50:14.092Z</time></trkpt><trkpt lat="45.6716433" lon="10.7822783"><ele>997.0</ele><time>2026-04-25T12:50:15.092Z</time></trkpt><trkpt lat="45.6717567" lon="10.78218"><ele>997.0</ele><time>2026-04-25T12:50:16.092Z</time></trkpt><trkpt lat="45.6718733" lon="10.7820783"><ele>997.0</ele><time>2026-04-25T12:50:17.092Z</time></trkpt><trkpt lat="45.6719733" lon="10.7819783"><ele>997.0</ele><time>2026-04-25T12:50:18.092Z</time></trkpt><trkpt lat="45.6720683" lon="10.7818783"><ele>998.8</ele><time>2026-04-25T12:50:19.092Z</time></trkpt><trkpt lat="45.672165" lon="10.7817883"><ele>1000.6</ele><time>2026-04-25T12:50:20.092Z</time></trkpt><trkpt lat="45.6722583" lon="10.781705"><ele>1002.3999999999999</ele><time>2026-04-25T12:50:21.091Z</time></trkpt><trkpt lat="45.67235" lon="10.78162"><ele>1004.1999999999999</ele><time>2026-04-25T12:50:22.092Z</time></trkpt><trkpt lat="45.6724433" lon="10.7815417"><ele>1006.0</ele><time>2026-04-25T12:50:23.092Z</time></trkpt><trkpt lat="45.6725233" lon="10.7814417"><ele>1006.0</ele><time>2026-04-25T12:50:24.091Z</time></trkpt><trkpt lat="45.6726167" lon="10.7813633"><ele>1005.9999999999999</ele><time>2026-04-25T12:50:25.092Z</time></trkpt><trkpt lat="45.6727" lon="10.7813033"><ele>1005.9999999999999</ele><time>2026-04-25T12:50:26.092Z</time></trkpt><trkpt lat="45.672805" lon="10.781245"><ele>1006.0</ele><time>2026-04-25T12:50:27.091Z</time></trkpt><trkpt lat="45.6729067" lon="10.7811917"><ele>1006.0</ele><time>2026-04-25T12:50:28.092Z</time></trkpt><trkpt lat="45.673015" lon="10.7811567"><ele>1007.5</ele><time>2026-04-25T12:50:29.091Z</time></trkpt><trkpt lat="45.67313" lon="10.78115"><ele>1009.0</ele><time>2026-04-25T12:50:30.091Z</time></trkpt><trkpt lat="45.6732467" lon="10.7811483"><ele>1010.5</ele><time>2026-04-25T12:50:31.092Z</time></trkpt><trkpt lat="45.67337" lon="10.7811467"><ele>1012.0</ele><time>2026-04-25T12:50:32.091Z</time></trkpt><trkpt lat="45.6734983" lon="10.7811317"><ele>1012.5</ele><time>2026-04-25T12:50:33.092Z</time></trkpt><trkpt lat="45.6736283" lon="10.7810983"><ele>1013.0</ele><time>2026-04-25T12:50:34.092Z</time></trkpt><trkpt lat="45.67376" lon="10.7810533"><ele>1013.5</ele><time>2026-04-25T12:50:35.091Z</time></trkpt><trkpt lat="45.6738933" lon="10.7809983"><ele>1014.0</ele><time>2026-04-25T12:50:36.092Z</time></trkpt><trkpt lat="45.6740233" lon="10.7809483"><ele>1012.5</ele><time>2026-04-25T12:50:37.092Z</time></trkpt><trkpt lat="45.6741583" lon="10.7809"><ele>1011.0</ele><time>2026-04-25T12:50:38.092Z</time></trkpt><trkpt lat="45.6742883" lon="10.7808767"><ele>1009.5</ele><time>2026-04-25T12:50:39.091Z</time></trkpt><trkpt lat="45.6744067" lon="10.7808383"><ele>1008.0</ele><time>2026-04-25T12:50:40.092Z</time></trkpt><trkpt lat="45.674525" lon="10.7808"><ele>1007.0</ele><time>2026-04-25T12:50:41.092Z</time></trkpt><trkpt lat="45.674645" lon="10.7807817"><ele>1006.0</ele><time>2026-04-25T12:50:42.092Z</time></trkpt><trkpt lat="45.6747483" lon="10.7807683"><ele>1005.0</ele><time>2026-04-25T12:50:43.092Z</time></trkpt><trkpt lat="45.6748517" lon="10.7807667"><ele>1004.0</ele><time>2026-04-25T12:50:44.091Z</time></trkpt><trkpt lat="45.67495" lon="10.7807683"><ele>1003.0</ele><time>2026-04-25T12:50:45.091Z</time></trkpt><trkpt lat="45.6750567" lon="10.7807833"><ele>1003.0</ele><time>2026-04-25T12:50:46.092Z</time></trkpt><trkpt lat="45.6751683" lon="10.7807933"><ele>1003.0</ele><time>2026-04-25T12:50:47.091Z</time></trkpt><trkpt lat="45.6752867" lon="10.7807817"><ele>1003.0</ele><time>2026-04-25T12:50:48.091Z</time></trkpt><trkpt lat="45.6754133" lon="10.78076"><ele>1003.0</ele><time>2026-04-25T12:50:49.092Z</time></trkpt><trkpt lat="45.6755517" lon="10.78073"><ele>1002.5</ele><time>2026-04-25T12:50:50.092Z</time></trkpt><trkpt lat="45.675695" lon="10.7806983"><ele>1002.0</ele><time>2026-04-25T12:50:51.092Z</time></trkpt><trkpt lat="45.67584" lon="10.7806833"><ele>1001.5</ele><time>2026-04-25T12:50:52.092Z</time></trkpt><trkpt lat="45.6759883" lon="10.7806667"><ele>1001.0</ele><time>2026-04-25T12:50:53.092Z</time></trkpt><trkpt lat="45.6761333" lon="10.7806633"><ele>1001.0</ele><time>2026-04-25T12:50:54.092Z</time></trkpt><trkpt lat="45.6762833" lon="10.7806467"><ele>1001.0</ele><time>2026-04-25T12:50:55.092Z</time></trkpt><trkpt lat="45.6764417" lon="10.78063"><ele>1001.0</ele><time>2026-04-25T12:50:56.091Z</time></trkpt><trkpt lat="45.6765967" lon="10.7806183"><ele>1001.0</ele><time>2026-04-25T12:50:57.092Z</time></trkpt><trkpt lat="45.676755" lon="10.7806067"><ele>1001.0</ele><time>2026-04-25T12:50:58.091Z</time></trkpt><trkpt lat="45.6769133" lon="10.7806117"><ele>1001.0</ele><time>2026-04-25T12:50:59.092Z</time></trkpt><trkpt lat="45.6770717" lon="10.7806267"><ele>1001.3333333333334</ele><time>2026-04-25T12:51:00.092Z</time></trkpt><trkpt lat="45.67723" lon="10.7806417"><ele>1001.6666666666667</ele><time>2026-04-25T12:51:01.091Z</time></trkpt><trkpt lat="45.6773833" lon="10.78064"><ele>1002.0</ele><time>2026-04-25T12:51:02.092Z</time></trkpt><trkpt lat="45.677525" lon="10.7806017"><ele>1002.0</ele><time>2026-04-25T12:51:03.092Z</time></trkpt><trkpt lat="45.67767" lon="10.780555"><ele>1002.0</ele><time>2026-04-25T12:51:04.092Z</time></trkpt><trkpt lat="45.6778117" lon="10.7804933"><ele>1002.0</ele><time>2026-04-25T12:51:05.092Z</time></trkpt><trkpt lat="45.677955" lon="10.7804267"><ele>1002.0</ele><time>2026-04-25T12:51:06.091Z</time></trkpt><trkpt lat="45.67809" lon="10.78035"><ele>1003.25</ele><time>2026-04-25T12:51:07.092Z</time></trkpt><trkpt lat="45.6782183" lon="10.78029"><ele>1004.5</ele><time>2026-04-25T12:51:08.092Z</time></trkpt><trkpt lat="45.67835" lon="10.7802233"><ele>1005.75</ele><time>2026-04-25T12:51:09.092Z</time></trkpt><trkpt lat="45.6784733" lon="10.7801717"><ele>1007.0</ele><time>2026-04-25T12:51:10.092Z</time></trkpt><trkpt lat="45.67859" lon="10.780135"><ele>1007.5</ele><time>2026-04-25T12:51:11.092Z</time></trkpt><trkpt lat="45.67871" lon="10.780135"><ele>1008.0</ele><time>2026-04-25T12:51:12.091Z</time></trkpt><trkpt lat="45.6788333" lon="10.7801567"><ele>1008.5</ele><time>2026-04-25T12:51:13.092Z</time></trkpt><trkpt lat="45.6789617" lon="10.7802"><ele>1009.0</ele><time>2026-04-25T12:51:14.092Z</time></trkpt><trkpt lat="45.6790867" lon="10.78028"><ele>1009.0</ele><time>2026-04-25T12:51:15.092Z</time></trkpt><trkpt lat="45.679215" lon="10.7803667"><ele>1009.0</ele><time>2026-04-25T12:51:16.092Z</time></trkpt><trkpt lat="45.6793383" lon="10.7804683"><ele>1009.0</ele><time>2026-04-25T12:51:17.092Z</time></trkpt><trkpt lat="45.6794517" lon="10.7805817"><ele>1009.0</ele><time>2026-04-25T12:51:18.092Z</time></trkpt><trkpt lat="45.679565" lon="10.7807017"><ele>1008.5</ele><time>2026-04-25T12:51:19.092Z</time></trkpt><trkpt lat="45.679685" lon="10.780825"><ele>1008.0</ele><time>2026-04-25T12:51:20.092Z</time></trkpt><trkpt lat="45.6798117" lon="10.7809417"><ele>1007.5</ele><time>2026-04-25T12:51:21.092Z</time></trkpt><trkpt lat="45.6799417" lon="10.7810367"><ele>1007.0</ele><time>2026-04-25T12:51:22.091Z</time></trkpt><trkpt lat="45.6800683" lon="10.7811067"><ele>1007.0</ele><time>2026-04-25T12:51:23.092Z</time></trkpt><trkpt lat="45.68019" lon="10.78117"><ele>1007.0</ele><time>2026-04-25T12:51:24.092Z</time></trkpt><trkpt lat="45.68031" lon="10.7812417"><ele>1007.0</ele><time>2026-04-25T12:51:25.092Z</time></trkpt><trkpt lat="45.6804283" lon="10.7813317"><ele>1007.0</ele><time>2026-04-25T12:51:26.091Z</time></trkpt><trkpt lat="45.68053" lon="10.7814283"><ele>1005.25</ele><time>2026-04-25T12:51:27.092Z</time></trkpt><trkpt lat="45.6806367" lon="10.781535"><ele>1003.5</ele><time>2026-04-25T12:51:28.092Z</time></trkpt><trkpt lat="45.680755" lon="10.7816433"><ele>1001.75</ele><time>2026-04-25T12:51:29.092Z</time></trkpt><trkpt lat="45.6808933" lon="10.781715"><ele>1000.0</ele><time>2026-04-25T12:51:30.091Z</time></trkpt><trkpt lat="45.681045" lon="10.78175"><ele>997.0</ele><time>2026-04-25T12:51:31.092Z</time></trkpt><trkpt lat="45.681195" lon="10.7817633"><ele>994.0</ele><time>2026-04-25T12:51:32.092Z</time></trkpt><trkpt lat="45.6813417" lon="10.7817917"><ele>991.0</ele><time>2026-04-25T12:51:33.091Z</time></trkpt><trkpt lat="45.6814933" lon="10.7818217"><ele>990.3333333333333</ele><time>2026-04-25T12:51:34.092Z</time></trkpt><trkpt lat="45.6815717" lon="10.7818567"><ele>989.6666666666667</ele><time>2026-04-25T12:51:35.135Z</time></trkpt><trkpt lat="45.6818367" lon="10.7818817"><ele>989.0</ele><time>2026-04-25T12:51:36.34Z</time></trkpt><trkpt lat="45.682035" lon="10.7819867"><ele>989.0</ele><time>2026-04-25T12:51:37.59Z</time></trkpt><trkpt lat="45.6822233" lon="10.7820783"><ele>989.0</ele><time>2026-04-25T12:51:38.591Z</time></trkpt><trkpt lat="45.6823883" lon="10.7821283"><ele>989.0</ele><time>2026-04-25T12:51:39.59Z</time></trkpt><trkpt lat="45.682615" lon="10.7821017"><ele>987.0</ele><time>2026-04-25T12:51:41.091Z</time></trkpt><trkpt lat="45.6827733" lon="10.7821233"><ele>985.0</ele><time>2026-04-25T12:51:42.091Z</time></trkpt><trkpt lat="45.6829367" lon="10.78219"><ele>983.0</ele><time>2026-04-25T12:51:43.091Z</time></trkpt><trkpt lat="45.683085" lon="10.7822867"><ele>983.0</ele><time>2026-04-25T12:51:44.092Z</time></trkpt><trkpt lat="45.68323" lon="10.7824033"><ele>983.0</ele><time>2026-04-25T12:51:45.092Z</time></trkpt><trkpt lat="45.6833683" lon="10.78253"><ele>983.0</ele><time>2026-04-25T12:51:46.092Z</time></trkpt><trkpt lat="45.68351" lon="10.782645"><ele>985.3333333333334</ele><time>2026-04-25T12:51:47.092Z</time></trkpt><trkpt lat="45.68365" lon="10.782725"><ele>987.6666666666667</ele><time>2026-04-25T12:51:48.092Z</time></trkpt><trkpt lat="45.6838017" lon="10.7827683"><ele>990.0</ele><time>2026-04-25T12:51:49.092Z</time></trkpt><trkpt lat="45.6839517" lon="10.7827833"><ele>990.0</ele><time>2026-04-25T12:51:50.091Z</time></trkpt><trkpt lat="45.6841" lon="10.782785"><ele>990.0</ele><time>2026-04-25T12:51:51.091Z</time></trkpt><trkpt lat="45.6842433" lon="10.7827883"><ele>990.0</ele><time>2026-04-25T12:51:52.091Z</time></trkpt><trkpt lat="45.6843883" lon="10.7827933"><ele>990.0</ele><time>2026-04-25T12:51:53.092Z</time></trkpt><trkpt lat="45.6845367" lon="10.7828117"><ele>989.5</ele><time>2026-04-25T12:51:54.092Z</time></trkpt><trkpt lat="45.684675" lon="10.7828467"><ele>989.0</ele><time>2026-04-25T12:51:55.092Z</time></trkpt><trkpt lat="45.6848217" lon="10.78291"><ele>988.5</ele><time>2026-04-25T12:51:56.092Z</time></trkpt><trkpt lat="45.6849683" lon="10.7829767"><ele>988.0</ele><time>2026-04-25T12:51:57.092Z</time></trkpt><trkpt lat="45.6851033" lon="10.7830733"><ele>988.0</ele><time>2026-04-25T12:51:58.092Z</time></trkpt><trkpt lat="45.6852383" lon="10.7832017"><ele>988.0</ele><time>2026-04-25T12:51:59.092Z</time></trkpt><trkpt lat="45.6853633" lon="10.7833433"><ele>988.0</ele><time>2026-04-25T12:52:00.092Z</time></trkpt><trkpt lat="45.6854783" lon="10.7834883"><ele>990.25</ele><time>2026-04-25T12:52:01.092Z</time></trkpt><trkpt lat="45.68559" lon="10.78363"><ele>992.5</ele><time>2026-04-25T12:52:02.091Z</time></trkpt><trkpt lat="45.6857" lon="10.7837717"><ele>994.75</ele><time>2026-04-25T12:52:03.092Z</time></trkpt><trkpt lat="45.685815" lon="10.783905"><ele>997.0</ele><time>2026-04-25T12:52:04.091Z</time></trkpt><trkpt lat="45.6859317" lon="10.784035"><ele>997.0</ele><time>2026-04-25T12:52:05.092Z</time></trkpt><trkpt lat="45.6860483" lon="10.78416"><ele>997.0</ele><time>2026-04-25T12:52:06.092Z</time></trkpt><trkpt lat="45.6861483" lon="10.7843"><ele>997.0</ele><time>2026-04-25T12:52:07.092Z</time></trkpt><trkpt lat="45.6862467" lon="10.7844317"><ele>997.0</ele><time>2026-04-25T12:52:08.092Z</time></trkpt><trkpt lat="45.6863417" lon="10.784545"><ele>1000.75</ele><time>2026-04-25T12:52:09.092Z</time></trkpt><trkpt lat="45.6864283" lon="10.7846683"><ele>1004.5</ele><time>2026-04-25T12:52:10.092Z</time></trkpt><trkpt lat="45.6865167" lon="10.7847833"><ele>1008.25</ele><time>2026-04-25T12:52:11.092Z</time></trkpt><trkpt lat="45.6865933" lon="10.7848967"><ele>1012.0</ele><time>2026-04-25T12:52:12.092Z</time></trkpt><trkpt lat="45.6866583" lon="10.7850183"><ele>1011.9999999999999</ele><time>2026-04-25T12:52:13.092Z</time></trkpt><trkpt lat="45.6867117" lon="10.7851417"><ele>1012.0</ele><time>2026-04-25T12:52:14.091Z</time></trkpt><trkpt lat="45.6867583" lon="10.7852617"><ele>1012.0</ele><time>2026-04-25T12:52:15.092Z</time></trkpt><trkpt lat="45.6868017" lon="10.78537"><ele>1012.0</ele><time>2026-04-25T12:52:16.092Z</time></trkpt><trkpt lat="45.6868467" lon="10.7854683"><ele>1011.9999999999999</ele><time>2026-04-25T12:52:17.092Z</time></trkpt><trkpt lat="45.6869" lon="10.7855533"><ele>1012.0</ele><time>2026-04-25T12:52:18.092Z</time></trkpt><trkpt lat="45.6869517" lon="10.785645"><ele>1013.8</ele><time>2026-04-25T12:52:19.091Z</time></trkpt><trkpt lat="45.6869933" lon="10.78576"><ele>1015.6</ele><time>2026-04-25T12:52:20.092Z</time></trkpt><trkpt lat="45.6870083" lon="10.7858933"><ele>1017.3999999999999</ele><time>2026-04-25T12:52:21.092Z</time></trkpt><trkpt lat="45.686995" lon="10.7860233"><ele>1019.1999999999999</ele><time>2026-04-25T12:52:22.092Z</time></trkpt><trkpt lat="45.6869767" lon="10.786155"><ele>1021.0</ele><time>2026-04-25T12:52:23.092Z</time></trkpt><trkpt lat="45.68696" lon="10.78629"><ele>1023.0</ele><time>2026-04-25T12:52:24.092Z</time></trkpt><trkpt lat="45.686945" lon="10.7864283"><ele>1025.0</ele><time>2026-04-25T12:52:25.092Z</time></trkpt><trkpt lat="45.6869367" lon="10.7865717"><ele>1027.0</ele><time>2026-04-25T12:52:26.092Z</time></trkpt><trkpt lat="45.686935" lon="10.7867117"><ele>1029.0</ele><time>2026-04-25T12:52:27.092Z</time></trkpt><trkpt lat="45.6869617" lon="10.786845"><ele>1031.0</ele><time>2026-04-25T12:52:28.092Z</time></trkpt><trkpt lat="45.6870017" lon="10.7869717"><ele>1033.0</ele><time>2026-04-25T12:52:29.091Z</time></trkpt><trkpt lat="45.68706" lon="10.7870933"><ele>1035.0</ele><time>2026-04-25T12:52:30.091Z</time></trkpt><trkpt lat="45.687125" lon="10.7872"><ele>1037.0</ele><time>2026-04-25T12:52:31.092Z</time></trkpt><trkpt lat="45.687185" lon="10.7873067"><ele>1039.0</ele><time>2026-04-25T12:52:32.092Z</time></trkpt><trkpt lat="45.68725" lon="10.787395"><ele>1041.0</ele><time>2026-04-25T12:52:33.092Z</time></trkpt><trkpt lat="45.6873267" lon="10.7874833"><ele>1041.0</ele><time>2026-04-25T12:52:34.092Z</time></trkpt><trkpt lat="45.6873883" lon="10.7875833"><ele>1041.0</ele><time>2026-04-25T12:52:35.092Z</time></trkpt><trkpt lat="45.6874583" lon="10.78767"><ele>1041.0</ele><time>2026-04-25T12:52:36.092Z</time></trkpt><trkpt lat="45.6875333" lon="10.7877433"><ele>1041.0</ele><time>2026-04-25T12:52:37.092Z</time></trkpt><trkpt lat="45.6876183" lon="10.7878067"><ele>1041.0</ele><time>2026-04-25T12:52:38.092Z</time></trkpt><trkpt lat="45.6876833" lon="10.787855"><ele>1041.0</ele><time>2026-04-25T12:52:39.092Z</time></trkpt><trkpt lat="45.6877583" lon="10.7879"><ele>1042.2857142857142</ele><time>2026-04-25T12:52:40.092Z</time></trkpt><trkpt lat="45.6878233" lon="10.7879317"><ele>1043.5714285714287</ele><time>2026-04-25T12:52:41.092Z</time></trkpt><trkpt lat="45.6878933" lon="10.7879667"><ele>1044.857142857143</ele><time>2026-04-25T12:52:42.092Z</time></trkpt><trkpt lat="45.6879567" lon="10.7880217"><ele>1046.142857142857</ele><time>2026-04-25T12:52:43.092Z</time></trkpt><trkpt lat="45.6880133" lon="10.7880667"><ele>1047.4285714285716</ele><time>2026-04-25T12:52:44.092Z</time></trkpt><trkpt lat="45.68808" lon="10.7881217"><ele>1048.7142857142858</ele><time>2026-04-25T12:52:45.091Z</time></trkpt><trkpt lat="45.68814" lon="10.7881833"><ele>1050.0</ele><time>2026-04-25T12:52:46.092Z</time></trkpt><trkpt lat="45.688205" lon="10.78828"><ele>1050.0</ele><time>2026-04-25T12:52:47.092Z</time></trkpt><trkpt lat="45.6882783" lon="10.7883967"><ele>1050.0</ele><time>2026-04-25T12:52:48.091Z</time></trkpt><trkpt lat="45.68835" lon="10.7885267"><ele>1050.0</ele><time>2026-04-25T12:52:49.092Z</time></trkpt><trkpt lat="45.688425" lon="10.7886467"><ele>1050.0</ele><time>2026-04-25T12:52:50.091Z</time></trkpt><trkpt lat="45.6884983" lon="10.7887667"><ele>1050.0</ele><time>2026-04-25T12:52:51.092Z</time></trkpt><trkpt lat="45.6885733" lon="10.7888767"><ele>1053.0</ele><time>2026-04-25T12:52:52.091Z</time></trkpt><trkpt lat="45.6886533" lon="10.7889883"><ele>1056.0</ele><time>2026-04-25T12:52:53.092Z</time></trkpt><trkpt lat="45.6887333" lon="10.789105"><ele>1059.0</ele><time>2026-04-25T12:52:54.091Z</time></trkpt><trkpt lat="45.6888017" lon="10.789225"><ele>1062.0</ele><time>2026-04-25T12:52:55.092Z</time></trkpt><trkpt lat="45.688875" lon="10.789325"><ele>1065.0</ele><time>2026-04-25T12:52:56.092Z</time></trkpt><trkpt lat="45.68896" lon="10.7894033"><ele>1066.4</ele><time>2026-04-25T12:52:57.092Z</time></trkpt><trkpt lat="45.6890483" lon="10.7894717"><ele>1067.8</ele><time>2026-04-25T12:52:58.091Z</time></trkpt><trkpt lat="45.68913" lon="10.7895"><ele>1069.2</ele><time>2026-04-25T12:52:59.092Z</time></trkpt><trkpt lat="45.6892267" lon="10.789535"><ele>1070.6</ele><time>2026-04-25T12:53:00.092Z</time></trkpt><trkpt lat="45.689335" lon="10.7895633"><ele>1072.0</ele><time>2026-04-25T12:53:01.092Z</time></trkpt><trkpt lat="45.68945" lon="10.7895867"><ele>1073.6</ele><time>2026-04-25T12:53:02.091Z</time></trkpt><trkpt lat="45.6895567" lon="10.7896083"><ele>1075.2</ele><time>2026-04-25T12:53:03.092Z</time></trkpt><trkpt lat="45.689655" lon="10.789645"><ele>1076.8</ele><time>2026-04-25T12:53:04.092Z</time></trkpt><trkpt lat="45.6897633" lon="10.789695"><ele>1078.4</ele><time>2026-04-25T12:53:05.092Z</time></trkpt><trkpt lat="45.6898683" lon="10.789745"><ele>1080.0</ele><time>2026-04-25T12:53:06.092Z</time></trkpt><trkpt lat="45.689975" lon="10.78979"><ele>1080.0</ele><time>2026-04-25T12:53:07.092Z</time></trkpt><trkpt lat="45.6900817" lon="10.7898267"><ele>1080.0</ele><time>2026-04-25T12:53:08.092Z</time></trkpt><trkpt lat="45.6901883" lon="10.7898683"><ele>1080.0</ele><time>2026-04-25T12:53:09.092Z</time></trkpt><trkpt lat="45.6902983" lon="10.7898983"><ele>1080.0</ele><time>2026-04-25T12:53:10.091Z</time></trkpt><trkpt lat="45.690405" lon="10.7899333"><ele>1080.0</ele><time>2026-04-25T12:53:11.092Z</time></trkpt><trkpt lat="45.69052" lon="10.7899667"><ele>1082.0</ele><time>2026-04-25T12:53:12.092Z</time></trkpt><trkpt lat="45.6906333" lon="10.7899967"><ele>1084.0</ele><time>2026-04-25T12:53:13.091Z</time></trkpt><trkpt lat="45.6907417" lon="10.7900217"><ele>1086.0</ele><time>2026-04-25T12:53:14.092Z</time></trkpt><trkpt lat="45.6908433" lon="10.7900733"><ele>1088.0</ele><time>2026-04-25T12:53:15.092Z</time></trkpt><trkpt lat="45.69096" lon="10.7901233"><ele>1090.0</ele><time>2026-04-25T12:53:16.092Z</time></trkpt><trkpt lat="45.69108" lon="10.7901933"><ele>1092.0</ele><time>2026-04-25T12:53:17.092Z</time></trkpt><trkpt lat="45.6911917" lon="10.790265"><ele>1094.0</ele><time>2026-04-25T12:53:18.092Z</time></trkpt><trkpt lat="45.6913167" lon="10.79035"><ele>1096.0</ele><time>2026-04-25T12:53:19.092Z</time></trkpt><trkpt lat="45.6914383" lon="10.7904233"><ele>1097.75</ele><time>2026-04-25T12:53:20.092Z</time></trkpt><trkpt lat="45.6915717" lon="10.790505"><ele>1099.5</ele><time>2026-04-25T12:53:21.091Z</time></trkpt><trkpt lat="45.6917" lon="10.7905883"><ele>1101.25</ele><time>2026-04-25T12:53:22.091Z</time></trkpt><trkpt lat="45.6918217" lon="10.7906667"><ele>1103.0</ele><time>2026-04-25T12:53:23.092Z</time></trkpt><trkpt lat="45.6919417" lon="10.79075"><ele>1104.5</ele><time>2026-04-25T12:53:24.091Z</time></trkpt><trkpt lat="45.69205" lon="10.790825"><ele>1106.0</ele><time>2026-04-25T12:53:25.092Z</time></trkpt><trkpt lat="45.69217" lon="10.7909083"><ele>1107.5</ele><time>2026-04-25T12:53:26.091Z</time></trkpt><trkpt lat="45.6922917" lon="10.7909817"><ele>1109.0</ele><time>2026-04-25T12:53:27.091Z</time></trkpt><trkpt lat="45.6924183" lon="10.7910533"><ele>1111.75</ele><time>2026-04-25T12:53:28.091Z</time></trkpt><trkpt lat="45.6925367" lon="10.7911317"><ele>1114.5</ele><time>2026-04-25T12:53:29.092Z</time></trkpt><trkpt lat="45.692655" lon="10.791215"><ele>1117.25</ele><time>2026-04-25T12:53:30.092Z</time></trkpt><trkpt lat="45.6927617" lon="10.7913067"><ele>1120.0</ele><time>2026-04-25T12:53:31.091Z</time></trkpt><trkpt lat="45.6928733" lon="10.7913967"><ele>1121.5</ele><time>2026-04-25T12:53:32.092Z</time></trkpt><trkpt lat="45.6930083" lon="10.7914783"><ele>1123.0</ele><time>2026-04-25T12:53:33.092Z</time></trkpt><trkpt lat="45.6931317" lon="10.7915467"><ele>1124.5</ele><time>2026-04-25T12:53:34.092Z</time></trkpt><trkpt lat="45.6932417" lon="10.7916233"><ele>1126.0</ele><time>2026-04-25T12:53:35.092Z</time></trkpt><trkpt lat="45.6933633" lon="10.7917033"><ele>1126.0</ele><time>2026-04-25T12:53:36.092Z</time></trkpt><trkpt lat="45.6934817" lon="10.7917883"><ele>1126.0</ele><time>2026-04-25T12:53:37.092Z</time></trkpt><trkpt lat="45.6936067" lon="10.791865"><ele>1126.0</ele><time>2026-04-25T12:53:38.092Z</time></trkpt><trkpt lat="45.693715" lon="10.7919383"><ele>1126.0</ele><time>2026-04-25T12:53:39.092Z</time></trkpt><trkpt lat="45.6938383" lon="10.792015"><ele>1130.0</ele><time>2026-04-25T12:53:40.092Z</time></trkpt><trkpt lat="45.6939483" lon="10.7920883"><ele>1134.0</ele><time>2026-04-25T12:53:41.091Z</time></trkpt><trkpt lat="45.6940467" lon="10.7921633"><ele>1138.0</ele><time>2026-04-25T12:53:42.092Z</time></trkpt><trkpt lat="45.6941383" lon="10.7922533"><ele>1142.0</ele><time>2026-04-25T12:53:43.092Z</time></trkpt><trkpt lat="45.6942467" lon="10.7923767"><ele>1142.0</ele><time>2026-04-25T12:53:44.091Z</time></trkpt><trkpt lat="45.6943517" lon="10.79249"><ele>1142.0</ele><time>2026-04-25T12:53:45.092Z</time></trkpt><trkpt lat="45.6944383" lon="10.7925767"><ele>1142.0</ele><time>2026-04-25T12:53:46.091Z</time></trkpt><trkpt lat="45.6945167" lon="10.7926383"><ele>1142.0</ele><time>2026-04-25T12:53:47.092Z</time></trkpt><trkpt lat="45.6945883" lon="10.7926767"><ele>1142.0</ele><time>2026-04-25T12:53:48.092Z</time></trkpt><trkpt lat="45.6946733" lon="10.7926767"><ele>1143.8</ele><time>2026-04-25T12:53:49.092Z</time></trkpt><trkpt lat="45.6947683" lon="10.7926367"><ele>1145.6</ele><time>2026-04-25T12:53:50.091Z</time></trkpt><trkpt lat="45.6948533" lon="10.7925333"><ele>1147.3999999999999</ele><time>2026-04-25T12:53:51.092Z</time></trkpt><trkpt lat="45.6949133" lon="10.7923867"><ele>1149.2</ele><time>2026-04-25T12:53:52.091Z</time></trkpt><trkpt lat="45.6949717" lon="10.79226"><ele>1151.0</ele><time>2026-04-25T12:53:53.092Z</time></trkpt><trkpt lat="45.6950317" lon="10.792135"><ele>1151.0</ele><time>2026-04-25T12:53:54.092Z</time></trkpt><trkpt lat="45.6950917" lon="10.7920317"><ele>1151.0</ele><time>2026-04-25T12:53:55.092Z</time></trkpt><trkpt lat="45.69514" lon="10.791945"><ele>1151.0</ele><time>2026-04-25T12:53:56.092Z</time></trkpt><trkpt lat="45.6951917" lon="10.79189"><ele>1151.0</ele><time>2026-04-25T12:53:57.092Z</time></trkpt><trkpt lat="45.69531" lon="10.7918817"><ele>1151.0</ele><time>2026-04-25T12:53:59.092Z</time></trkpt><trkpt lat="45.695385" lon="10.79191"><ele>1151.0</ele><time>2026-04-25T12:54:00.091Z</time></trkpt><trkpt lat="45.69546" lon="10.7919433"><ele>1150.5</ele><time>2026-04-25T12:54:01.091Z</time></trkpt><trkpt lat="45.6955383" lon="10.7919717"><ele>1150.0</ele><time>2026-04-25T12:54:02.092Z</time></trkpt><trkpt lat="45.6956217" lon="10.7919967"><ele>1149.5</ele><time>2026-04-25T12:54:03.092Z</time></trkpt><trkpt lat="45.695695" lon="10.79202"><ele>1149.0</ele><time>2026-04-25T12:54:04.091Z</time></trkpt><trkpt lat="45.69581" lon="10.792005"><ele>1148.5</ele><time>2026-04-25T12:54:06.091Z</time></trkpt><trkpt lat="45.6958717" lon="10.7919833"><ele>1148.0</ele><time>2026-04-25T12:54:07.092Z</time></trkpt><trkpt lat="45.6959417" lon="10.79197"><ele>1148.0</ele><time>2026-04-25T12:54:08.092Z</time></trkpt><trkpt lat="45.6960167" lon="10.7919867"><ele>1148.0</ele><time>2026-04-25T12:54:09.092Z</time></trkpt><trkpt lat="45.6960783" lon="10.79203"><ele>1148.0</ele><time>2026-04-25T12:54:10.092Z</time></trkpt><trkpt lat="45.6961133" lon="10.7921183"><ele>1148.0</ele><time>2026-04-25T12:54:11.092Z</time></trkpt><trkpt lat="45.69613" lon="10.7922083"><ele>1148.0</ele><time>2026-04-25T12:54:12.092Z</time></trkpt><trkpt lat="45.6960967" lon="10.792385"><ele>1148.0</ele><time>2026-04-25T12:54:14.092Z</time></trkpt><trkpt lat="45.69606" lon="10.792475"><ele>1148.0</ele><time>2026-04-25T12:54:15.091Z</time></trkpt><trkpt lat="45.696035" lon="10.7925667"><ele>1148.0</ele><time>2026-04-25T12:54:16.092Z</time></trkpt><trkpt lat="45.6960183" lon="10.7926667"><ele>1148.0</ele><time>2026-04-25T12:54:17.091Z</time></trkpt><trkpt lat="45.6960683" lon="10.7928167"><ele>1148.0</ele><time>2026-04-25T12:54:19.091Z</time></trkpt><trkpt lat="45.6960933" lon="10.7929717"><ele>1148.0</ele><time>2026-04-25T12:54:21.092Z</time></trkpt><trkpt lat="45.6960883" lon="10.79307"><ele>1148.0</ele><time>2026-04-25T12:54:22.092Z</time></trkpt><trkpt lat="45.6960967" lon="10.7931633"><ele>1140.6</ele><time>2026-04-25T12:54:23.091Z</time></trkpt><trkpt lat="45.6961483" lon="10.7932933"><ele>1133.1999999999998</ele><time>2026-04-25T12:54:25.092Z</time></trkpt><trkpt lat="45.696205" lon="10.7933983"><ele>1125.8</ele><time>2026-04-25T12:54:27.092Z</time></trkpt><trkpt lat="45.6962517" lon="10.7935233"><ele>1118.3999999999999</ele><time>2026-04-25T12:54:29.092Z</time></trkpt><trkpt lat="45.6963633" lon="10.7936117"><ele>1111.0</ele><time>2026-04-25T12:54:31.092Z</time></trkpt><trkpt lat="45.6964433" lon="10.7936433"><ele>1111.0</ele><time>2026-04-25T12:54:32.092Z</time></trkpt><trkpt lat="45.6965167" lon="10.79373"><ele>1111.0</ele><time>2026-04-25T12:54:33.091Z</time></trkpt><trkpt lat="45.6965517" lon="10.793815"><ele>1111.0</ele><time>2026-04-25T12:54:34.092Z</time></trkpt><trkpt lat="45.6965767" lon="10.7939233"><ele>1111.0</ele><time>2026-04-25T12:54:35.092Z</time></trkpt><trkpt lat="45.6965867" lon="10.7940433"><ele>1111.0</ele><time>2026-04-25T12:54:36.092Z</time></trkpt><trkpt lat="45.6965717" lon="10.7941683"><ele>1111.0</ele><time>2026-04-25T12:54:37.092Z</time></trkpt><trkpt lat="45.6965467" lon="10.794295"><ele>1113.3333333333333</ele><time>2026-04-25T12:54:38.092Z</time></trkpt><trkpt lat="45.69652" lon="10.79442"><ele>1115.6666666666665</ele><time>2026-04-25T12:54:39.092Z</time></trkpt><trkpt lat="45.6964767" lon="10.7945267"><ele>1118.0</ele><time>2026-04-25T12:54:40.092Z</time></trkpt><trkpt lat="45.6964267" lon="10.79463"><ele>1120.3333333333333</ele><time>2026-04-25T12:54:41.092Z</time></trkpt><trkpt lat="45.69636" lon="10.7947217"><ele>1122.6666666666667</ele><time>2026-04-25T12:54:42.092Z</time></trkpt><trkpt lat="45.6963167" lon="10.7948083"><ele>1125.0</ele><time>2026-04-25T12:54:43.091Z</time></trkpt><trkpt lat="45.6962817" lon="10.7948967"><ele>1125.0</ele><time>2026-04-25T12:54:44.092Z</time></trkpt><trkpt lat="45.6962517" lon="10.7949983"><ele>1125.0</ele><time>2026-04-25T12:54:45.092Z</time></trkpt><trkpt lat="45.6962167" lon="10.795115"><ele>1125.0</ele><time>2026-04-25T12:54:46.092Z</time></trkpt><trkpt lat="45.6961633" lon="10.7952117"><ele>1125.0</ele><time>2026-04-25T12:54:47.092Z</time></trkpt><trkpt lat="45.6961183" lon="10.79532"><ele>1125.0</ele><time>2026-04-25T12:54:48.092Z</time></trkpt><trkpt lat="45.6960833" lon="10.7954367"><ele>1125.0</ele><time>2026-04-25T12:54:49.092Z</time></trkpt><trkpt lat="45.6960267" lon="10.7955233"><ele>1135.6666666666667</ele><time>2026-04-25T12:54:50.092Z</time></trkpt><trkpt lat="45.695985" lon="10.7956283"><ele>1146.3333333333333</ele><time>2026-04-25T12:54:51.092Z</time></trkpt><trkpt lat="45.695955" lon="10.7957333"><ele>1157.0</ele><time>2026-04-25T12:54:52.092Z</time></trkpt><trkpt lat="45.6959317" lon="10.7958367"><ele>1167.6666666666665</ele><time>2026-04-25T12:54:53.092Z</time></trkpt><trkpt lat="45.6959067" lon="10.7959467"><ele>1178.3333333333333</ele><time>2026-04-25T12:54:54.092Z</time></trkpt><trkpt lat="45.6958983" lon="10.7960567"><ele>1189.0</ele><time>2026-04-25T12:54:55.092Z</time></trkpt><trkpt lat="45.6958917" lon="10.7961683"><ele>1189.0</ele><time>2026-04-25T12:54:56.092Z</time></trkpt><trkpt lat="45.695915" lon="10.7962933"><ele>1189.0</ele><time>2026-04-25T12:54:57.092Z</time></trkpt><trkpt lat="45.695935" lon="10.796405"><ele>1189.0</ele><time>2026-04-25T12:54:58.092Z</time></trkpt><trkpt lat="45.6959367" lon="10.7964983"><ele>1189.0</ele><time>2026-04-25T12:54:59.092Z</time></trkpt><trkpt lat="45.695935" lon="10.7965917"><ele>1189.0</ele><time>2026-04-25T12:55:00.092Z</time></trkpt><trkpt lat="45.6959483" lon="10.79668"><ele>1189.0</ele><time>2026-04-25T12:55:01.091Z</time></trkpt><trkpt lat="45.69601" lon="10.7967933"><ele>1191.3333333333333</ele><time>2026-04-25T12:55:03.092Z</time></trkpt><trkpt lat="45.69607" lon="10.796845"><ele>1193.6666666666665</ele><time>2026-04-25T12:55:05.091Z</time></trkpt><trkpt lat="45.696115" lon="10.7967"><ele>1196.0</ele><time>2026-04-25T12:55:08.092Z</time></trkpt><trkpt lat="45.6961717" lon="10.79655"><ele>1198.3333333333333</ele><time>2026-04-25T12:55:10.092Z</time></trkpt><trkpt lat="45.6962067" lon="10.79647"><ele>1200.6666666666667</ele><time>2026-04-25T12:55:11.091Z</time></trkpt><trkpt lat="45.6962417" lon="10.7963783"><ele>1203.0</ele><time>2026-04-25T12:55:12.091Z</time></trkpt><trkpt lat="45.6962933" lon="10.7962867"><ele>1195.0</ele><time>2026-04-25T12:55:13.092Z</time></trkpt><trkpt lat="45.6963417" lon="10.796205"><ele>1187.0</ele><time>2026-04-25T12:55:14.091Z</time></trkpt><trkpt lat="45.6964017" lon="10.796135"><ele>1179.0</ele><time>2026-04-25T12:55:15.092Z</time></trkpt><trkpt lat="45.6964917" lon="10.7960683"><ele>1171.0</ele><time>2026-04-25T12:55:16.092Z</time></trkpt><trkpt lat="45.6965683" lon="10.7960283"><ele>1163.0</ele><time>2026-04-25T12:55:17.092Z</time></trkpt><trkpt lat="45.6966383" lon="10.795965"><ele>1155.0</ele><time>2026-04-25T12:55:18.091Z</time></trkpt><trkpt lat="45.6967267" lon="10.7959117"><ele>1154.4</ele><time>2026-04-25T12:55:19.092Z</time></trkpt><trkpt lat="45.6968283" lon="10.7958967"><ele>1153.8</ele><time>2026-04-25T12:55:20.092Z</time></trkpt><trkpt lat="45.69691" lon="10.7958267"><ele>1153.2</ele><time>2026-04-25T12:55:21.092Z</time></trkpt><trkpt lat="45.6969817" lon="10.7957517"><ele>1152.6</ele><time>2026-04-25T12:55:22.091Z</time></trkpt><trkpt lat="45.697075" lon="10.79568"><ele>1152.0</ele><time>2026-04-25T12:55:23.092Z</time></trkpt><trkpt lat="45.6971483" lon="10.7956117"><ele>1152.0</ele><time>2026-04-25T12:55:24.091Z</time></trkpt><trkpt lat="45.6972183" lon="10.7955417"><ele>1152.0</ele><time>2026-04-25T12:55:25.092Z</time></trkpt><trkpt lat="45.6972783" lon="10.7954767"><ele>1152.0</ele><time>2026-04-25T12:55:26.091Z</time></trkpt><trkpt lat="45.6973467" lon="10.795415"><ele>1152.0</ele><time>2026-04-25T12:55:27.092Z</time></trkpt><trkpt lat="45.6974117" lon="10.7953517"><ele>1152.0</ele><time>2026-04-25T12:55:28.092Z</time></trkpt><trkpt lat="45.69748" lon="10.7952933"><ele>1152.0</ele><time>2026-04-25T12:55:29.091Z</time></trkpt><trkpt lat="45.6975417" lon="10.795235"><ele>1149.8333333333333</ele><time>2026-04-25T12:55:30.091Z</time></trkpt><trkpt lat="45.6976133" lon="10.7951683"><ele>1147.6666666666667</ele><time>2026-04-25T12:55:31.091Z</time></trkpt><trkpt lat="45.6976833" lon="10.795125"><ele>1145.5</ele><time>2026-04-25T12:55:32.092Z</time></trkpt><trkpt lat="45.6977517" lon="10.7951033"><ele>1143.3333333333335</ele><time>2026-04-25T12:55:33.092Z</time></trkpt><trkpt lat="45.6978667" lon="10.79502"><ele>1141.1666666666667</ele><time>2026-04-25T12:55:35.091Z</time></trkpt><trkpt lat="45.69793" lon="10.794975"><ele>1139.0</ele><time>2026-04-25T12:55:36.092Z</time></trkpt><trkpt lat="45.6979883" lon="10.79491"><ele>1139.0</ele><time>2026-04-25T12:55:37.092Z</time></trkpt><trkpt lat="45.69805" lon="10.794855"><ele>1139.0</ele><time>2026-04-25T12:55:38.092Z</time></trkpt><trkpt lat="45.6981683" lon="10.79478"><ele>1139.0</ele><time>2026-04-25T12:55:40.092Z</time></trkpt><trkpt lat="45.698245" lon="10.794765"><ele>1139.0</ele><time>2026-04-25T12:55:41.092Z</time></trkpt><trkpt lat="45.6983267" lon="10.7947833"><ele>1139.0</ele><time>2026-04-25T12:55:42.091Z</time></trkpt><trkpt lat="45.6984117" lon="10.7948067"><ele>1139.0</ele><time>2026-04-25T12:55:43.092Z</time></trkpt><trkpt lat="45.698495" lon="10.7948733"><ele>1139.0</ele><time>2026-04-25T12:55:44.092Z</time></trkpt><trkpt lat="45.6985667" lon="10.79494"><ele>1139.0</ele><time>2026-04-25T12:55:45.092Z</time></trkpt><trkpt lat="45.69863" lon="10.7950117"><ele>1139.0</ele><time>2026-04-25T12:55:46.092Z</time></trkpt><trkpt lat="45.6986967" lon="10.795075"><ele>1139.0</ele><time>2026-04-25T12:55:47.092Z</time></trkpt><trkpt lat="45.6987583" lon="10.795125"><ele>1139.0</ele><time>2026-04-25T12:55:48.092Z</time></trkpt><trkpt lat="45.6988783" lon="10.7951617"><ele>1139.0</ele><time>2026-04-25T12:55:50.092Z</time></trkpt><trkpt lat="45.69897" lon="10.7951517"><ele>1140.6000000000001</ele><time>2026-04-25T12:55:51.092Z</time></trkpt><trkpt lat="45.6990833" lon="10.795175"><ele>1142.2</ele><time>2026-04-25T12:55:52.092Z</time></trkpt><trkpt lat="45.6991717" lon="10.79522"><ele>1143.8000000000002</ele><time>2026-04-25T12:55:53.092Z</time></trkpt><trkpt lat="45.699265" lon="10.7952883"><ele>1145.4</ele><time>2026-04-25T12:55:54.092Z</time></trkpt><trkpt lat="45.69934" lon="10.7953733"><ele>1147.0</ele><time>2026-04-25T12:55:55.092Z</time></trkpt><trkpt lat="45.6994367" lon="10.79545"><ele>1143.4</ele><time>2026-04-25T12:55:56.091Z</time></trkpt><trkpt lat="45.6995367" lon="10.795525"><ele>1139.8000000000002</ele><time>2026-04-25T12:55:57.092Z</time></trkpt><trkpt lat="45.6996283" lon="10.7955533"><ele>1136.2</ele><time>2026-04-25T12:55:58.092Z</time></trkpt><trkpt lat="45.699725" lon="10.7955667"><ele>1132.6000000000001</ele><time>2026-04-25T12:55:59.092Z</time></trkpt><trkpt lat="45.6998233" lon="10.7955967"><ele>1129.0</ele><time>2026-04-25T12:56:00.092Z</time></trkpt><trkpt lat="45.6999183" lon="10.7956467"><ele>1129.0</ele><time>2026-04-25T12:56:01.092Z</time></trkpt><trkpt lat="45.70001" lon="10.7957183"><ele>1129.0</ele><time>2026-04-25T12:56:02.091Z</time></trkpt><trkpt lat="45.7001017" lon="10.795765"><ele>1129.0</ele><time>2026-04-25T12:56:03.092Z</time></trkpt><trkpt lat="45.7001867" lon="10.7958017"><ele>1129.0</ele><time>2026-04-25T12:56:04.092Z</time></trkpt><trkpt lat="45.7002733" lon="10.7958333"><ele>1129.0</ele><time>2026-04-25T12:56:05.092Z</time></trkpt><trkpt lat="45.7003783" lon="10.7958517"><ele>1126.2</ele><time>2026-04-25T12:56:06.091Z</time></trkpt><trkpt lat="45.7004817" lon="10.7958667"><ele>1123.4</ele><time>2026-04-25T12:56:07.092Z</time></trkpt><trkpt lat="45.7005833" lon="10.79588"><ele>1120.6</ele><time>2026-04-25T12:56:08.092Z</time></trkpt><trkpt lat="45.700675" lon="10.7959"><ele>1117.8</ele><time>2026-04-25T12:56:09.092Z</time></trkpt><trkpt lat="45.7007667" lon="10.7959233"><ele>1115.0</ele><time>2026-04-25T12:56:10.092Z</time></trkpt><trkpt lat="45.7008633" lon="10.7959517"><ele>1115.0</ele><time>2026-04-25T12:56:11.092Z</time></trkpt><trkpt lat="45.700965" lon="10.795975"><ele>1115.0</ele><time>2026-04-25T12:56:12.091Z</time></trkpt><trkpt lat="45.7010583" lon="10.7960067"><ele>1115.0</ele><time>2026-04-25T12:56:13.092Z</time></trkpt><trkpt lat="45.701145" lon="10.79604"><ele>1115.0</ele><time>2026-04-25T12:56:14.092Z</time></trkpt><trkpt lat="45.7012367" lon="10.796085"><ele>1115.0</ele><time>2026-04-25T12:56:15.091Z</time></trkpt><trkpt lat="45.7013317" lon="10.7961367"><ele>1118.0</ele><time>2026-04-25T12:56:16.092Z</time></trkpt><trkpt lat="45.7014267" lon="10.796185"><ele>1121.0</ele><time>2026-04-25T12:56:17.091Z</time></trkpt><trkpt lat="45.701525" lon="10.79622"><ele>1124.0</ele><time>2026-04-25T12:56:18.092Z</time></trkpt><trkpt lat="45.7016367" lon="10.7962483"><ele>1127.0</ele><time>2026-04-25T12:56:19.092Z</time></trkpt><trkpt lat="45.701745" lon="10.79627"><ele>1130.0</ele><time>2026-04-25T12:56:20.092Z</time></trkpt><trkpt lat="45.7018433" lon="10.7962783"><ele>1125.5</ele><time>2026-04-25T12:56:21.091Z</time></trkpt><trkpt lat="45.7019317" lon="10.7962983"><ele>1121.0</ele><time>2026-04-25T12:56:22.091Z</time></trkpt><trkpt lat="45.7020133" lon="10.7963167"><ele>1116.5</ele><time>2026-04-25T12:56:23.092Z</time></trkpt><trkpt lat="45.7020867" lon="10.7963467"><ele>1112.0</ele><time>2026-04-25T12:56:24.092Z</time></trkpt><trkpt lat="45.70215" lon="10.7964083"><ele>1107.5</ele><time>2026-04-25T12:56:25.092Z</time></trkpt><trkpt lat="45.7021983" lon="10.7964817"><ele>1103.0</ele><time>2026-04-25T12:56:26.092Z</time></trkpt><trkpt lat="45.7022383" lon="10.7965733"><ele>1103.0</ele><time>2026-04-25T12:56:27.092Z</time></trkpt><trkpt lat="45.7022667" lon="10.79668"><ele>1103.0</ele><time>2026-04-25T12:56:28.092Z</time></trkpt><trkpt lat="45.7022767" lon="10.7967967"><ele>1103.0</ele><time>2026-04-25T12:56:29.092Z</time></trkpt><trkpt lat="45.702275" lon="10.7969133"><ele>1103.0</ele><time>2026-04-25T12:56:30.092Z</time></trkpt><trkpt lat="45.702285" lon="10.79702"><ele>1103.0</ele><time>2026-04-25T12:56:31.092Z</time></trkpt><trkpt lat="45.7023" lon="10.797165"><ele>1103.0</ele><time>2026-04-25T12:56:33.092Z</time></trkpt><trkpt lat="45.7023583" lon="10.7972283"><ele>1106.3333333333335</ele><time>2026-04-25T12:56:35.092Z</time></trkpt><trkpt lat="45.7024467" lon="10.79725"><ele>1109.6666666666667</ele><time>2026-04-25T12:56:37.091Z</time></trkpt><trkpt lat="45.70251" lon="10.797255"><ele>1113.0</ele><time>2026-04-25T12:56:38.092Z</time></trkpt><trkpt lat="45.702575" lon="10.797255"><ele>1116.3333333333333</ele><time>2026-04-25T12:56:39.092Z</time></trkpt><trkpt lat="45.702655" lon="10.797245"><ele>1119.6666666666665</ele><time>2026-04-25T12:56:40.092Z</time></trkpt><trkpt lat="45.70273" lon="10.79723"><ele>1123.0</ele><time>2026-04-25T12:56:41.092Z</time></trkpt><trkpt lat="45.7028067" lon="10.797205"><ele>1123.0</ele><time>2026-04-25T12:56:42.092Z</time></trkpt><trkpt lat="45.7029083" lon="10.7971633"><ele>1123.0</ele><time>2026-04-25T12:56:43.092Z</time></trkpt><trkpt lat="45.7030033" lon="10.7971217"><ele>1123.0</ele><time>2026-04-25T12:56:44.092Z</time></trkpt><trkpt lat="45.7030817" lon="10.7970667"><ele>1123.0</ele><time>2026-04-25T12:56:45.092Z</time></trkpt><trkpt lat="45.7031533" lon="10.7970167"><ele>1123.0</ele><time>2026-04-25T12:56:46.092Z</time></trkpt><trkpt lat="45.703225" lon="10.7969383"><ele>1123.0</ele><time>2026-04-25T12:56:47.091Z</time></trkpt><trkpt lat="45.703295" lon="10.7968667"><ele>1123.0</ele><time>2026-04-25T12:56:48.091Z</time></trkpt><trkpt lat="45.7033667" lon="10.796815"><ele>1123.0</ele><time>2026-04-25T12:56:49.092Z</time></trkpt><trkpt lat="45.703445" lon="10.79677"><ele>1123.0</ele><time>2026-04-25T12:56:50.092Z</time></trkpt><trkpt lat="45.7035233" lon="10.79673"><ele>1123.0</ele><time>2026-04-25T12:56:51.091Z</time></trkpt><trkpt lat="45.7036133" lon="10.7966833"><ele>1123.0</ele><time>2026-04-25T12:56:52.092Z</time></trkpt><trkpt lat="45.7036967" lon="10.7966483"><ele>1116.8</ele><time>2026-04-25T12:56:53.091Z</time></trkpt><trkpt lat="45.7037867" lon="10.79662"><ele>1110.6</ele><time>2026-04-25T12:56:54.092Z</time></trkpt><trkpt lat="45.7038717" lon="10.79659"><ele>1104.4</ele><time>2026-04-25T12:56:55.092Z</time></trkpt><trkpt lat="45.7039617" lon="10.79658"><ele>1098.2</ele><time>2026-04-25T12:56:56.092Z</time></trkpt><trkpt lat="45.7040583" lon="10.7965833"><ele>1092.0</ele><time>2026-04-25T12:56:57.091Z</time></trkpt><trkpt lat="45.70415" lon="10.796575"><ele>1092.0</ele><time>2026-04-25T12:56:58.091Z</time></trkpt><trkpt lat="45.7042383" lon="10.7965767"><ele>1092.0</ele><time>2026-04-25T12:56:59.092Z</time></trkpt><trkpt lat="45.7043233" lon="10.796575"><ele>1092.0</ele><time>2026-04-25T12:57:00.092Z</time></trkpt><trkpt lat="45.7044117" lon="10.79658"><ele>1092.0</ele><time>2026-04-25T12:57:01.092Z</time></trkpt><trkpt lat="45.7045167" lon="10.7965933"><ele>1092.0</ele><time>2026-04-25T12:57:02.092Z</time></trkpt><trkpt lat="45.7046067" lon="10.7966117"><ele>1091.0</ele><time>2026-04-25T12:57:03.092Z</time></trkpt><trkpt lat="45.704685" lon="10.7966383"><ele>1090.0</ele><time>2026-04-25T12:57:04.092Z</time></trkpt><trkpt lat="45.704765" lon="10.7966767"><ele>1089.0</ele><time>2026-04-25T12:57:05.092Z</time></trkpt><trkpt lat="45.70484" lon="10.7967183"><ele>1088.0</ele><time>2026-04-25T12:57:06.092Z</time></trkpt><trkpt lat="45.7049" lon="10.7967517"><ele>1087.0</ele><time>2026-04-25T12:57:07.092Z</time></trkpt><trkpt lat="45.70499" lon="10.796825"><ele>1086.0</ele><time>2026-04-25T12:57:09.092Z</time></trkpt><trkpt lat="45.7050617" lon="10.7967633"><ele>1086.0</ele><time>2026-04-25T12:57:12.092Z</time></trkpt><trkpt lat="45.7050133" lon="10.796655"><ele>1086.0</ele><time>2026-04-25T12:57:15.092Z</time></trkpt><trkpt lat="45.70495" lon="10.7965817"><ele>1086.0</ele><time>2026-04-25T12:57:17.091Z</time></trkpt><trkpt lat="45.7048817" lon="10.7965283"><ele>1086.0</ele><time>2026-04-25T12:57:18.092Z</time></trkpt><trkpt lat="45.7048267" lon="10.7964783"><ele>1086.0</ele><time>2026-04-25T12:57:19.092Z</time></trkpt><trkpt lat="45.70476" lon="10.79642"><ele>1086.0</ele><time>2026-04-25T12:57:20.092Z</time></trkpt><trkpt lat="45.70469" lon="10.7963517"><ele>1086.0</ele><time>2026-04-25T12:57:21.092Z</time></trkpt><trkpt lat="45.7046117" lon="10.7962733"><ele>1086.0</ele><time>2026-04-25T12:57:22.092Z</time></trkpt><trkpt lat="45.7045317" lon="10.7962017"><ele>1086.0</ele><time>2026-04-25T12:57:23.092Z</time></trkpt><trkpt lat="45.70446" lon="10.7961267"><ele>1086.0</ele><time>2026-04-25T12:57:24.092Z</time></trkpt><trkpt lat="45.7043867" lon="10.79607"><ele>1086.0</ele><time>2026-04-25T12:57:25.092Z</time></trkpt><trkpt lat="45.7043183" lon="10.7960233"><ele>1086.0</ele><time>2026-04-25T12:57:26.091Z</time></trkpt><trkpt lat="45.7042483" lon="10.7959883"><ele>1081.1666666666667</ele><time>2026-04-25T12:57:27.092Z</time></trkpt><trkpt lat="45.7041483" lon="10.7959567"><ele>1076.3333333333333</ele><time>2026-04-25T12:57:29.091Z</time></trkpt><trkpt lat="45.704075" lon="10.7958983"><ele>1071.5</ele><time>2026-04-25T12:57:31.092Z</time></trkpt><trkpt lat="45.7041" lon="10.7958117"><ele>1066.6666666666665</ele><time>2026-04-25T12:57:33.092Z</time></trkpt><trkpt lat="45.704195" lon="10.7957733"><ele>1061.8333333333333</ele><time>2026-04-25T12:57:35.092Z</time></trkpt><trkpt lat="45.7042633" lon="10.7957567"><ele>1057.0</ele><time>2026-04-25T12:57:36.092Z</time></trkpt><trkpt lat="45.70434" lon="10.7957317"><ele>1057.1666666666665</ele><time>2026-04-25T12:57:37.092Z</time></trkpt><trkpt lat="45.7044183" lon="10.7957033"><ele>1057.3333333333333</ele><time>2026-04-25T12:57:38.092Z</time></trkpt><trkpt lat="45.704495" lon="10.79568"><ele>1057.5</ele><time>2026-04-25T12:57:39.092Z</time></trkpt><trkpt lat="45.7045683" lon="10.7956567"><ele>1057.6666666666667</ele><time>2026-04-25T12:57:40.092Z</time></trkpt><trkpt lat="45.7046417" lon="10.7956333"><ele>1057.8333333333335</ele><time>2026-04-25T12:57:41.091Z</time></trkpt><trkpt lat="45.7047283" lon="10.79561"><ele>1058.0</ele><time>2026-04-25T12:57:42.092Z</time></trkpt><trkpt lat="45.704825" lon="10.7955833"><ele>1058.0</ele><time>2026-04-25T12:57:43.092Z</time></trkpt><trkpt lat="45.704915" lon="10.795535"><ele>1058.0</ele><time>2026-04-25T12:57:44.092Z</time></trkpt><trkpt lat="45.7049783" lon="10.79549"><ele>1058.0</ele><time>2026-04-25T12:57:45.092Z</time></trkpt><trkpt lat="45.7050433" lon="10.7954467"><ele>1058.0</ele><time>2026-04-25T12:57:46.091Z</time></trkpt><trkpt lat="45.705135" lon="10.7953383"><ele>1058.0</ele><time>2026-04-25T12:57:48.092Z</time></trkpt><trkpt lat="45.7051467" lon="10.7952033"><ele>1054.3333333333335</ele><time>2026-04-25T12:57:50.092Z</time></trkpt><trkpt lat="45.7051167" lon="10.795065"><ele>1050.6666666666667</ele><time>2026-04-25T12:57:52.092Z</time></trkpt><trkpt lat="45.70509" lon="10.7948933"><ele>1047.0</ele><time>2026-04-25T12:57:54.092Z</time></trkpt><trkpt lat="45.7050817" lon="10.7947917"><ele>1043.3333333333333</ele><time>2026-04-25T12:57:55.091Z</time></trkpt><trkpt lat="45.7050933" lon="10.79469"><ele>1039.6666666666665</ele><time>2026-04-25T12:57:56.092Z</time></trkpt><trkpt lat="45.7051117" lon="10.7945883"><ele>1036.0</ele><time>2026-04-25T12:57:57.092Z</time></trkpt><trkpt lat="45.705145" lon="10.7944967"><ele>1036.0</ele><time>2026-04-25T12:57:58.092Z</time></trkpt><trkpt lat="45.7051883" lon="10.79441"><ele>1036.0</ele><time>2026-04-25T12:57:59.092Z</time></trkpt><trkpt lat="45.7052783" lon="10.7942933"><ele>1036.0</ele><time>2026-04-25T12:58:01.092Z</time></trkpt><trkpt lat="45.705395" lon="10.794245"><ele>1036.0</ele><time>2026-04-25T12:58:03.092Z</time></trkpt><trkpt lat="45.7054633" lon="10.79424"><ele>1036.0</ele><time>2026-04-25T12:58:04.092Z</time></trkpt><trkpt lat="45.7055367" lon="10.794245"><ele>1035.8333333333333</ele><time>2026-04-25T12:58:05.092Z</time></trkpt><trkpt lat="45.7056183" lon="10.7942633"><ele>1035.6666666666665</ele><time>2026-04-25T12:58:06.092Z</time></trkpt><trkpt lat="45.7057" lon="10.794285"><ele>1035.5</ele><time>2026-04-25T12:58:07.092Z</time></trkpt><trkpt lat="45.7057633" lon="10.7943183"><ele>1035.3333333333333</ele><time>2026-04-25T12:58:08.092Z</time></trkpt><trkpt lat="45.70583" lon="10.7943517"><ele>1035.1666666666667</ele><time>2026-04-25T12:58:09.092Z</time></trkpt><trkpt lat="45.7059183" lon="10.7943517"><ele>1035.0</ele><time>2026-04-25T12:58:11.091Z</time></trkpt><trkpt lat="45.7059217" lon="10.7942217"><ele>1031.1666666666667</ele><time>2026-04-25T12:58:14.091Z</time></trkpt><trkpt lat="45.70586" lon="10.7940983"><ele>1027.3333333333333</ele><time>2026-04-25T12:58:16.091Z</time></trkpt><trkpt lat="45.7058117" lon="10.79402"><ele>1023.5</ele><time>2026-04-25T12:58:17.091Z</time></trkpt><trkpt lat="45.7057717" lon="10.793945"><ele>1019.6666666666666</ele><time>2026-04-25T12:58:18.092Z</time></trkpt><trkpt lat="45.7057333" lon="10.7938633"><ele>1015.8333333333333</ele><time>2026-04-25T12:58:19.092Z</time></trkpt><trkpt lat="45.70567" lon="10.7937633"><ele>1012.0</ele><time>2026-04-25T12:58:20.091Z</time></trkpt><trkpt lat="45.7056067" lon="10.7936517"><ele>1012.0</ele><time>2026-04-25T12:58:21.092Z</time></trkpt><trkpt lat="45.7055217" lon="10.7935567"><ele>1012.0</ele><time>2026-04-25T12:58:22.092Z</time></trkpt><trkpt lat="45.7054483" lon="10.7934467"><ele>1012.0</ele><time>2026-04-25T12:58:23.092Z</time></trkpt><trkpt lat="45.7053883" lon="10.793355"><ele>1012.0</ele><time>2026-04-25T12:58:24.092Z</time></trkpt><trkpt lat="45.7053217" lon="10.7932767"><ele>1012.0</ele><time>2026-04-25T12:58:25.092Z</time></trkpt><trkpt lat="45.7052283" lon="10.7932267"><ele>1008.4999999999999</ele><time>2026-04-25T12:58:26.091Z</time></trkpt><trkpt lat="45.7051367" lon="10.79319"><ele>1005.0</ele><time>2026-04-25T12:58:27.092Z</time></trkpt><trkpt lat="45.7050533" lon="10.79317"><ele>1001.5</ele><time>2026-04-25T12:58:28.091Z</time></trkpt><trkpt lat="45.704985" lon="10.793175"><ele>998.0</ele><time>2026-04-25T12:58:29.092Z</time></trkpt><trkpt lat="45.7048933" lon="10.793245"><ele>994.4999999999999</ele><time>2026-04-25T12:58:31.092Z</time></trkpt><trkpt lat="45.7048383" lon="10.7931833"><ele>991.0</ele><time>2026-04-25T12:58:33.092Z</time></trkpt><trkpt lat="45.7048767" lon="10.7930583"><ele>990.9999999999999</ele><time>2026-04-25T12:58:35.092Z</time></trkpt><trkpt lat="45.7049233" lon="10.79298"><ele>991.0</ele><time>2026-04-25T12:58:36.092Z</time></trkpt><trkpt lat="45.7049883" lon="10.7929017"><ele>991.0</ele><time>2026-04-25T12:58:37.092Z</time></trkpt><trkpt lat="45.7050583" lon="10.7928167"><ele>991.0</ele><time>2026-04-25T12:58:38.092Z</time></trkpt><trkpt lat="45.7051317" lon="10.7927317"><ele>990.9999999999999</ele><time>2026-04-25T12:58:39.092Z</time></trkpt><trkpt lat="45.705205" lon="10.792655"><ele>991.0</ele><time>2026-04-25T12:58:40.092Z</time></trkpt><trkpt lat="45.7052833" lon="10.7925733"><ele>987.9999999999999</ele><time>2026-04-25T12:58:41.092Z</time></trkpt><trkpt lat="45.7053567" lon="10.7925017"><ele>985.0</ele><time>2026-04-25T12:58:42.091Z</time></trkpt><trkpt lat="45.705425" lon="10.79242"><ele>982.0</ele><time>2026-04-25T12:58:43.092Z</time></trkpt><trkpt lat="45.7054867" lon="10.79234"><ele>979.0</ele><time>2026-04-25T12:58:44.091Z</time></trkpt><trkpt lat="45.705535" lon="10.7922467"><ele>975.9999999999999</ele><time>2026-04-25T12:58:45.092Z</time></trkpt><trkpt lat="45.705575" lon="10.7921483"><ele>973.0</ele><time>2026-04-25T12:58:46.091Z</time></trkpt><trkpt lat="45.70559" lon="10.79203"><ele>972.9999999999999</ele><time>2026-04-25T12:58:47.092Z</time></trkpt><trkpt lat="45.7055733" lon="10.791915"><ele>973.0</ele><time>2026-04-25T12:58:48.092Z</time></trkpt><trkpt lat="45.7055583" lon="10.7918017"><ele>973.0</ele><time>2026-04-25T12:58:49.092Z</time></trkpt><trkpt lat="45.7055567" lon="10.7916983"><ele>973.0</ele><time>2026-04-25T12:58:50.092Z</time></trkpt><trkpt lat="45.7055717" lon="10.791595"><ele>972.9999999999999</ele><time>2026-04-25T12:58:51.092Z</time></trkpt><trkpt lat="45.7056033" lon="10.791505"><ele>973.0</ele><time>2026-04-25T12:58:52.091Z</time></trkpt><trkpt lat="45.70566" lon="10.79144"><ele>970.4999999999999</ele><time>2026-04-25T12:58:53.092Z</time></trkpt><trkpt lat="45.7057033" lon="10.791355"><ele>968.0</ele><time>2026-04-25T12:58:54.092Z</time></trkpt><trkpt lat="45.7057467" lon="10.79128"><ele>965.5</ele><time>2026-04-25T12:58:55.092Z</time></trkpt><trkpt lat="45.7057817" lon="10.7911967"><ele>963.0</ele><time>2026-04-25T12:58:56.092Z</time></trkpt><trkpt lat="45.7058133" lon="10.791055"><ele>960.4999999999999</ele><time>2026-04-25T12:58:58.092Z</time></trkpt><trkpt lat="45.7058" lon="10.7909117"><ele>958.0</ele><time>2026-04-25T12:59:00.091Z</time></trkpt><trkpt lat="45.70569" lon="10.790785"><ele>954.5999999999999</ele><time>2026-04-25T12:59:02.092Z</time></trkpt><trkpt lat="45.70561" lon="10.7907217"><ele>951.1999999999999</ele><time>2026-04-25T12:59:03.091Z</time></trkpt><trkpt lat="45.7055317" lon="10.7906567"><ele>947.8</ele><time>2026-04-25T12:59:04.092Z</time></trkpt><trkpt lat="45.7054517" lon="10.7905883"><ele>944.4</ele><time>2026-04-25T12:59:05.092Z</time></trkpt><trkpt lat="45.70537" lon="10.7905283"><ele>941.0</ele><time>2026-04-25T12:59:06.091Z</time></trkpt><trkpt lat="45.7052933" lon="10.7904717"><ele>938.8333333333334</ele><time>2026-04-25T12:59:07.092Z</time></trkpt><trkpt lat="45.705215" lon="10.7904133"><ele>936.6666666666667</ele><time>2026-04-25T12:59:08.092Z</time></trkpt><trkpt lat="45.7051317" lon="10.7903583"><ele>934.5</ele><time>2026-04-25T12:59:09.092Z</time></trkpt><trkpt lat="45.7050483" lon="10.790305"><ele>932.3333333333333</ele><time>2026-04-25T12:59:10.092Z</time></trkpt><trkpt lat="45.7049667" lon="10.7902517"><ele>930.1666666666666</ele><time>2026-04-25T12:59:11.091Z</time></trkpt><trkpt lat="45.704885" lon="10.790205"><ele>928.0</ele><time>2026-04-25T12:59:12.092Z</time></trkpt><trkpt lat="45.7048033" lon="10.7901617"><ele>928.0</ele><time>2026-04-25T12:59:13.092Z</time></trkpt><trkpt lat="45.7047367" lon="10.7901317"><ele>928.0</ele><time>2026-04-25T12:59:14.092Z</time></trkpt><trkpt lat="45.704675" lon="10.7900683"><ele>928.0</ele><time>2026-04-25T12:59:17.092Z</time></trkpt><trkpt lat="45.7047667" lon="10.79001"><ele>928.0</ele><time>2026-04-25T12:59:20.092Z</time></trkpt><trkpt lat="45.7049" lon="10.7900383"><ele>928.0</ele><time>2026-04-25T12:59:22.092Z</time></trkpt><trkpt lat="45.7049817" lon="10.790055"><ele>928.0</ele><time>2026-04-25T12:59:23.091Z</time></trkpt><trkpt lat="45.7050667" lon="10.7900817"><ele>928.0</ele><time>2026-04-25T12:59:24.092Z</time></trkpt><trkpt lat="45.705155" lon="10.7901083"><ele>928.0</ele><time>2026-04-25T12:59:25.092Z</time></trkpt><trkpt lat="45.7052483" lon="10.7901367"><ele>928.0</ele><time>2026-04-25T12:59:26.092Z</time></trkpt><trkpt lat="45.7053433" lon="10.7901617"><ele>928.0</ele><time>2026-04-25T12:59:27.091Z</time></trkpt><trkpt lat="45.7054283" lon="10.7901933"><ele>930.5999999999999</ele><time>2026-04-25T12:59:28.092Z</time></trkpt><trkpt lat="45.7055033" lon="10.79022"><ele>933.1999999999999</ele><time>2026-04-25T12:59:29.092Z</time></trkpt><trkpt lat="45.7055867" lon="10.7902267"><ele>935.8</ele><time>2026-04-25T12:59:30.092Z</time></trkpt><trkpt lat="45.70568" lon="10.7902367"><ele>938.4</ele><time>2026-04-25T12:59:31.091Z</time></trkpt><trkpt lat="45.7057833" lon="10.7902717"><ele>941.0</ele><time>2026-04-25T12:59:32.092Z</time></trkpt><trkpt lat="45.7058917" lon="10.7902883"><ele>941.0</ele><time>2026-04-25T12:59:33.091Z</time></trkpt><trkpt lat="45.7059867" lon="10.7903067"><ele>940.9999999999999</ele><time>2026-04-25T12:59:34.092Z</time></trkpt><trkpt lat="45.7060717" lon="10.7903267"><ele>940.9999999999999</ele><time>2026-04-25T12:59:35.092Z</time></trkpt><trkpt lat="45.7061733" lon="10.7903733"><ele>941.0</ele><time>2026-04-25T12:59:36.091Z</time></trkpt><trkpt lat="45.706265" lon="10.79041"><ele>941.0</ele><time>2026-04-25T12:59:37.092Z</time></trkpt><trkpt lat="45.7063567" lon="10.7904617"><ele>938.3333333333334</ele><time>2026-04-25T12:59:38.092Z</time></trkpt><trkpt lat="45.7064517" lon="10.7905067"><ele>935.6666666666667</ele><time>2026-04-25T12:59:39.092Z</time></trkpt><trkpt lat="45.7065317" lon="10.79056"><ele>933.0</ele><time>2026-04-25T12:59:40.092Z</time></trkpt><trkpt lat="45.706605" lon="10.79061"><ele>930.3333333333333</ele><time>2026-04-25T12:59:41.092Z</time></trkpt><trkpt lat="45.70667" lon="10.7906617"><ele>927.6666666666666</ele><time>2026-04-25T12:59:42.092Z</time></trkpt><trkpt lat="45.70673" lon="10.7907033"><ele>925.0</ele><time>2026-04-25T12:59:43.092Z</time></trkpt><trkpt lat="45.70681" lon="10.79075"><ele>924.9999999999999</ele><time>2026-04-25T12:59:45.092Z</time></trkpt><trkpt lat="45.7067617" lon="10.79064"><ele>925.0</ele><time>2026-04-25T12:59:48.092Z</time></trkpt><trkpt lat="45.70671" lon="10.7905783"><ele>925.0</ele><time>2026-04-25T12:59:49.092Z</time></trkpt><trkpt lat="45.7066483" lon="10.790515"><ele>925.0</ele><time>2026-04-25T12:59:50.092Z</time></trkpt><trkpt lat="45.7065917" lon="10.79045"><ele>924.9999999999999</ele><time>2026-04-25T12:59:51.092Z</time></trkpt><trkpt lat="45.70653" lon="10.7903683"><ele>925.0</ele><time>2026-04-25T12:59:52.091Z</time></trkpt><trkpt lat="45.70648" lon="10.790285"><ele>924.9999999999999</ele><time>2026-04-25T12:59:53.092Z</time></trkpt><trkpt lat="45.706435" lon="10.7902167"><ele>925.0</ele><time>2026-04-25T12:59:54.091Z</time></trkpt><trkpt lat="45.7063817" lon="10.790145"><ele>925.0</ele><time>2026-04-25T12:59:55.091Z</time></trkpt><trkpt lat="45.7063333" lon="10.7900733"><ele>925.0</ele><time>2026-04-25T12:59:56.092Z</time></trkpt><trkpt lat="45.7062833" lon="10.78999"><ele>924.9999999999999</ele><time>2026-04-25T12:59:57.092Z</time></trkpt><trkpt lat="45.7062317" lon="10.7899033"><ele>925.0</ele><time>2026-04-25T12:59:58.092Z</time></trkpt><trkpt lat="45.70617" lon="10.7898133"><ele>923.2</ele><time>2026-04-25T12:59:59.092Z</time></trkpt><trkpt lat="45.7061033" lon="10.7897283"><ele>921.4</ele><time>2026-04-25T13:00:00.092Z</time></trkpt><trkpt lat="45.7060467" lon="10.7896417"><ele>919.5999999999999</ele><time>2026-04-25T13:00:01.092Z</time></trkpt><trkpt lat="45.7059833" lon="10.7895367"><ele>917.8</ele><time>2026-04-25T13:00:02.092Z</time></trkpt><trkpt lat="45.7059267" lon="10.7894333"><ele>916.0</ele><time>2026-04-25T13:00:03.092Z</time></trkpt><trkpt lat="45.705855" lon="10.7893033"><ele>909.25</ele><time>2026-04-25T13:00:04.092Z</time></trkpt><trkpt lat="45.7057917" lon="10.789175"><ele>902.5</ele><time>2026-04-25T13:00:05.092Z</time></trkpt><trkpt lat="45.7057167" lon="10.789035"><ele>895.75</ele><time>2026-04-25T13:00:06.092Z</time></trkpt><trkpt lat="45.7056383" lon="10.788905"><ele>889.0</ele><time>2026-04-25T13:00:07.091Z</time></trkpt><trkpt lat="45.70556" lon="10.788795"><ele>889.0</ele><time>2026-04-25T13:00:08.092Z</time></trkpt><trkpt lat="45.7054767" lon="10.7886717"><ele>889.0</ele><time>2026-04-25T13:00:09.092Z</time></trkpt><trkpt lat="45.7053917" lon="10.7885533"><ele>889.0</ele><time>2026-04-25T13:00:10.092Z</time></trkpt><trkpt lat="45.7053" lon="10.7884483"><ele>889.0</ele><time>2026-04-25T13:00:11.092Z</time></trkpt><trkpt lat="45.7052117" lon="10.7883517"><ele>886.6</ele><time>2026-04-25T13:00:12.092Z</time></trkpt><trkpt lat="45.7051283" lon="10.7882717"><ele>884.2</ele><time>2026-04-25T13:00:13.092Z</time></trkpt><trkpt lat="45.7050433" lon="10.7882083"><ele>881.8000000000001</ele><time>2026-04-25T13:00:14.092Z</time></trkpt><trkpt lat="45.7049633" lon="10.788155"><ele>879.4000000000001</ele><time>2026-04-25T13:00:15.092Z</time></trkpt><trkpt lat="45.7048783" lon="10.7881"><ele>877.0</ele><time>2026-04-25T13:00:16.092Z</time></trkpt><trkpt lat="45.7047883" lon="10.788045"><ele>877.0</ele><time>2026-04-25T13:00:17.092Z</time></trkpt><trkpt lat="45.704695" lon="10.7879817"><ele>877.0</ele><time>2026-04-25T13:00:18.092Z</time></trkpt><trkpt lat="45.704625" lon="10.787925"><ele>877.0</ele><time>2026-04-25T13:00:19.092Z</time></trkpt><trkpt lat="45.704535" lon="10.787865"><ele>877.0</ele><time>2026-04-25T13:00:21.092Z</time></trkpt><trkpt lat="45.7045767" lon="10.787775"><ele>877.0</ele><time>2026-04-25T13:00:24.092Z</time></trkpt><trkpt lat="45.7046917" lon="10.7877867"><ele>877.0</ele><time>2026-04-25T13:00:26.092Z</time></trkpt><trkpt lat="45.70482" lon="10.787785"><ele>877.0</ele><time>2026-04-25T13:00:28.092Z</time></trkpt><trkpt lat="45.7048867" lon="10.78776"><ele>877.0</ele><time>2026-04-25T13:00:29.092Z</time></trkpt><trkpt lat="45.70496" lon="10.7877267"><ele>877.0</ele><time>2026-04-25T13:00:30.092Z</time></trkpt><trkpt lat="45.7050433" lon="10.7877033"><ele>877.0</ele><time>2026-04-25T13:00:31.092Z</time></trkpt><trkpt lat="45.705135" lon="10.78769"><ele>877.0</ele><time>2026-04-25T13:00:32.091Z</time></trkpt><trkpt lat="45.7052383" lon="10.7876917"><ele>877.0</ele><time>2026-04-25T13:00:33.092Z</time></trkpt><trkpt lat="45.7053317" lon="10.7876983"><ele>877.0</ele><time>2026-04-25T13:00:34.092Z</time></trkpt><trkpt lat="45.7054367" lon="10.78771"><ele>877.0</ele><time>2026-04-25T13:00:35.092Z</time></trkpt><trkpt lat="45.7055417" lon="10.78773"><ele>877.0</ele><time>2026-04-25T13:00:36.091Z</time></trkpt><trkpt lat="45.7056383" lon="10.7877583"><ele>873.8333333333333</ele><time>2026-04-25T13:00:37.092Z</time></trkpt><trkpt lat="45.705725" lon="10.7878033"><ele>870.6666666666666</ele><time>2026-04-25T13:00:38.091Z</time></trkpt><trkpt lat="45.705795" lon="10.7878517"><ele>867.5</ele><time>2026-04-25T13:00:39.092Z</time></trkpt><trkpt lat="45.7058617" lon="10.78789"><ele>864.3333333333333</ele><time>2026-04-25T13:00:40.092Z</time></trkpt><trkpt lat="45.7059267" lon="10.7878683"><ele>861.1666666666666</ele><time>2026-04-25T13:00:43.091Z</time></trkpt><trkpt lat="45.7058883" lon="10.7877867"><ele>858.0</ele><time>2026-04-25T13:00:45.092Z</time></trkpt><trkpt lat="45.7058267" lon="10.787665"><ele>851.8</ele><time>2026-04-25T13:00:47.091Z</time></trkpt><trkpt lat="45.7057783" lon="10.787585"><ele>845.5999999999999</ele><time>2026-04-25T13:00:48.092Z</time></trkpt><trkpt lat="45.70571" lon="10.787495"><ele>839.4000000000001</ele><time>2026-04-25T13:00:49.092Z</time></trkpt><trkpt lat="45.7056167" lon="10.7873917"><ele>833.2</ele><time>2026-04-25T13:00:50.092Z</time></trkpt><trkpt lat="45.7055217" lon="10.7872883"><ele>827.0</ele><time>2026-04-25T13:00:51.092Z</time></trkpt><trkpt lat="45.70544" lon="10.7871967"><ele>827.0</ele><time>2026-04-25T13:00:52.092Z</time></trkpt><trkpt lat="45.705345" lon="10.7871033"><ele>827.0</ele><time>2026-04-25T13:00:53.092Z</time></trkpt><trkpt lat="45.7052467" lon="10.7870067"><ele>827.0</ele><time>2026-04-25T13:00:54.092Z</time></trkpt><trkpt lat="45.70515" lon="10.78691"><ele>827.0</ele><time>2026-04-25T13:00:55.092Z</time></trkpt><trkpt lat="45.7050567" lon="10.7868033"><ele>823.25</ele><time>2026-04-25T13:00:56.092Z</time></trkpt><trkpt lat="45.70497" lon="10.786695"><ele>819.5</ele><time>2026-04-25T13:00:57.092Z</time></trkpt><trkpt lat="45.7048983" lon="10.7865733"><ele>815.75</ele><time>2026-04-25T13:00:58.091Z</time></trkpt><trkpt lat="45.7048183" lon="10.7864417"><ele>812.0</ele><time>2026-04-25T13:00:59.091Z</time></trkpt><trkpt lat="45.704745" lon="10.78632"><ele>812.0</ele><time>2026-04-25T13:01:00.092Z</time></trkpt><trkpt lat="45.704665" lon="10.7861883"><ele>812.0</ele><time>2026-04-25T13:01:01.092Z</time></trkpt><trkpt lat="45.704575" lon="10.7860733"><ele>812.0</ele><time>2026-04-25T13:01:02.092Z</time></trkpt><trkpt lat="45.7044883" lon="10.7859667"><ele>812.0</ele><time>2026-04-25T13:01:03.092Z</time></trkpt><trkpt lat="45.7044133" lon="10.785875"><ele>801.0</ele><time>2026-04-25T13:01:04.092Z</time></trkpt><trkpt lat="45.7043433" lon="10.7857983"><ele>790.0</ele><time>2026-04-25T13:01:05.092Z</time></trkpt><trkpt lat="45.7042817" lon="10.78574"><ele>779.0</ele><time>2026-04-25T13:01:06.092Z</time></trkpt><trkpt lat="45.7041767" lon="10.7856633"><ele>768.0</ele><time>2026-04-25T13:01:08.092Z</time></trkpt><trkpt lat="45.70424" lon="10.785575"><ele>757.0</ele><time>2026-04-25T13:01:11.092Z</time></trkpt><trkpt lat="45.7043717" lon="10.7855567"><ele>763.25</ele><time>2026-04-25T13:01:13.091Z</time></trkpt><trkpt lat="45.7044617" lon="10.7855517"><ele>769.5</ele><time>2026-04-25T13:01:14.092Z</time></trkpt><trkpt lat="45.7045783" lon="10.78555"><ele>775.75</ele><time>2026-04-25T13:01:15.092Z</time></trkpt><trkpt lat="45.7047133" lon="10.7855683"><ele>782.0</ele><time>2026-04-25T13:01:16.092Z</time></trkpt><trkpt lat="45.7048433" lon="10.7855783"><ele>782.0</ele><time>2026-04-25T13:01:17.092Z</time></trkpt><trkpt lat="45.7049567" lon="10.785605"><ele>782.0</ele><time>2026-04-25T13:01:18.091Z</time></trkpt><trkpt lat="45.7050767" lon="10.7856367"><ele>782.0</ele><time>2026-04-25T13:01:19.092Z</time></trkpt><trkpt lat="45.7051867" lon="10.7856667"><ele>782.0</ele><time>2026-04-25T13:01:20.092Z</time></trkpt><trkpt lat="45.7052833" lon="10.78569"><ele>782.0</ele><time>2026-04-25T13:01:21.092Z</time></trkpt><trkpt lat="45.7053767" lon="10.7857117"><ele>778.2</ele><time>2026-04-25T13:01:22.092Z</time></trkpt><trkpt lat="45.7054683" lon="10.7857283"><ele>774.4000000000001</ele><time>2026-04-25T13:01:23.092Z</time></trkpt><trkpt lat="45.705565" lon="10.7857483"><ele>770.5999999999999</ele><time>2026-04-25T13:01:24.092Z</time></trkpt><trkpt lat="45.7056717" lon="10.7857633"><ele>766.8</ele><time>2026-04-25T13:01:25.092Z</time></trkpt><trkpt lat="45.70579" lon="10.7857867"><ele>763.0</ele><time>2026-04-25T13:01:26.092Z</time></trkpt><trkpt lat="45.7059083" lon="10.7858117"><ele>763.0</ele><time>2026-04-25T13:01:27.092Z</time></trkpt><trkpt lat="45.706025" lon="10.7858417"><ele>763.0</ele><time>2026-04-25T13:01:28.092Z</time></trkpt><trkpt lat="45.70614" lon="10.7858817"><ele>763.0</ele><time>2026-04-25T13:01:29.092Z</time></trkpt><trkpt lat="45.7062467" lon="10.7859383"><ele>763.0</ele><time>2026-04-25T13:01:30.092Z</time></trkpt><trkpt lat="45.70636" lon="10.7859983"><ele>764.0</ele><time>2026-04-25T13:01:31.091Z</time></trkpt><trkpt lat="45.7064717" lon="10.7860633"><ele>765.0</ele><time>2026-04-25T13:01:32.092Z</time></trkpt><trkpt lat="45.7065867" lon="10.7861283"><ele>766.0</ele><time>2026-04-25T13:01:33.092Z</time></trkpt><trkpt lat="45.7067" lon="10.7861933"><ele>767.0</ele><time>2026-04-25T13:01:34.092Z</time></trkpt><trkpt lat="45.7068183" lon="10.7862633"><ele>759.6</ele><time>2026-04-25T13:01:35.092Z</time></trkpt><trkpt lat="45.7069267" lon="10.7863133"><ele>752.2</ele><time>2026-04-25T13:01:36.092Z</time></trkpt><trkpt lat="45.7070267" lon="10.7863583"><ele>744.8</ele><time>2026-04-25T13:01:37.091Z</time></trkpt><trkpt lat="45.7071333" lon="10.7863983"><ele>737.4</ele><time>2026-04-25T13:01:38.091Z</time></trkpt><trkpt lat="45.70725" lon="10.7864367"><ele>730.0</ele><time>2026-04-25T13:01:39.092Z</time></trkpt><trkpt lat="45.7073433" lon="10.786495"><ele>730.0</ele><time>2026-04-25T13:01:40.092Z</time></trkpt><trkpt lat="45.70742" lon="10.7865567"><ele>730.0</ele><time>2026-04-25T13:01:41.092Z</time></trkpt><trkpt lat="45.7074883" lon="10.7866167"><ele>730.0</ele><time>2026-04-25T13:01:42.092Z</time></trkpt><trkpt lat="45.7075583" lon="10.786655"><ele>730.0</ele><time>2026-04-25T13:01:43.091Z</time></trkpt><trkpt lat="45.707635" lon="10.7866867"><ele>730.0</ele><time>2026-04-25T13:01:44.092Z</time></trkpt><trkpt lat="45.707725" lon="10.7867167"><ele>730.0</ele><time>2026-04-25T13:01:45.092Z</time></trkpt><trkpt lat="45.7078233" lon="10.7867467"><ele>730.8333333333334</ele><time>2026-04-25T13:01:46.092Z</time></trkpt><trkpt lat="45.7079183" lon="10.7867817"><ele>731.6666666666667</ele><time>2026-04-25T13:01:47.092Z</time></trkpt><trkpt lat="45.7080083" lon="10.78682"><ele>732.5</ele><time>2026-04-25T13:01:48.092Z</time></trkpt><trkpt lat="45.70808" lon="10.7868717"><ele>733.3333333333334</ele><time>2026-04-25T13:01:49.091Z</time></trkpt><trkpt lat="45.7081333" lon="10.78692"><ele>734.1666666666666</ele><time>2026-04-25T13:01:50.092Z</time></trkpt><trkpt lat="45.7082217" lon="10.7870133"><ele>735.0</ele><time>2026-04-25T13:01:52.092Z</time></trkpt><trkpt lat="45.7082833" lon="10.7870383"><ele>735.0</ele><time>2026-04-25T13:01:54.091Z</time></trkpt><trkpt lat="45.7082733" lon="10.7869267"><ele>735.0</ele><time>2026-04-25T13:01:56.092Z</time></trkpt><trkpt lat="45.7082333" lon="10.7868517"><ele>735.0</ele><time>2026-04-25T13:01:57.092Z</time></trkpt><trkpt lat="45.7081783" lon="10.7867733"><ele>735.0</ele><time>2026-04-25T13:01:58.092Z</time></trkpt><trkpt lat="45.7081117" lon="10.786675"><ele>735.0</ele><time>2026-04-25T13:01:59.092Z</time></trkpt><trkpt lat="45.7080483" lon="10.7865817"><ele>735.0</ele><time>2026-04-25T13:02:00.092Z</time></trkpt><trkpt lat="45.7079917" lon="10.78648"><ele>727.8</ele><time>2026-04-25T13:02:01.092Z</time></trkpt><trkpt lat="45.7079417" lon="10.7863733"><ele>720.6</ele><time>2026-04-25T13:02:02.092Z</time></trkpt><trkpt lat="45.7078817" lon="10.7862717"><ele>713.4000000000001</ele><time>2026-04-25T13:02:03.092Z</time></trkpt><trkpt lat="45.7078183" lon="10.78617"><ele>706.2</ele><time>2026-04-25T13:02:04.092Z</time></trkpt><trkpt lat="45.70775" lon="10.7860783"><ele>699.0</ele><time>2026-04-25T13:02:05.092Z</time></trkpt><trkpt lat="45.7076817" lon="10.7859633"><ele>698.0</ele><time>2026-04-25T13:02:06.091Z</time></trkpt><trkpt lat="45.7076117" lon="10.785875"><ele>697.0</ele><time>2026-04-25T13:02:07.092Z</time></trkpt><trkpt lat="45.7075283" lon="10.7857733"><ele>696.0</ele><time>2026-04-25T13:02:08.092Z</time></trkpt><trkpt lat="45.70745" lon="10.7856667"><ele>695.0</ele><time>2026-04-25T13:02:09.092Z</time></trkpt><trkpt lat="45.7073817" lon="10.7855483"><ele>694.0</ele><time>2026-04-25T13:02:10.092Z</time></trkpt><trkpt lat="45.7073283" lon="10.7854217"><ele>694.0</ele><time>2026-04-25T13:02:11.091Z</time></trkpt><trkpt lat="45.7072733" lon="10.785285"><ele>694.0</ele><time>2026-04-25T13:02:12.092Z</time></trkpt><trkpt lat="45.7072083" lon="10.7851517"><ele>694.0</ele><time>2026-04-25T13:02:13.092Z</time></trkpt><trkpt lat="45.7071467" lon="10.785015"><ele>694.0</ele><time>2026-04-25T13:02:14.092Z</time></trkpt><trkpt lat="45.70707" lon="10.7848867"><ele>694.0</ele><time>2026-04-25T13:02:15.092Z</time></trkpt><trkpt lat="45.707" lon="10.7847483"><ele>694.0</ele><time>2026-04-25T13:02:16.091Z</time></trkpt><trkpt lat="45.7069283" lon="10.7846167"><ele>694.0</ele><time>2026-04-25T13:02:17.091Z</time></trkpt><trkpt lat="45.7068583" lon="10.7844867"><ele>694.0</ele><time>2026-04-25T13:02:18.092Z</time></trkpt><trkpt lat="45.7067917" lon="10.7843617"><ele>686.8000000000001</ele><time>2026-04-25T13:02:19.091Z</time></trkpt><trkpt lat="45.7067383" lon="10.78425"><ele>679.6</ele><time>2026-04-25T13:02:20.092Z</time></trkpt><trkpt lat="45.7066633" lon="10.78414"><ele>672.4</ele><time>2026-04-25T13:02:21.091Z</time></trkpt><trkpt lat="45.7065967" lon="10.7840167"><ele>665.2</ele><time>2026-04-25T13:02:22.092Z</time></trkpt><trkpt lat="45.706535" lon="10.7838933"><ele>658.0</ele><time>2026-04-25T13:02:23.091Z</time></trkpt><trkpt lat="45.7064717" lon="10.78378"><ele>658.0</ele><time>2026-04-25T13:02:24.091Z</time></trkpt><trkpt lat="45.70642" lon="10.7836667"><ele>658.0</ele><time>2026-04-25T13:02:25.092Z</time></trkpt><trkpt lat="45.706365" lon="10.783555"><ele>658.0</ele><time>2026-04-25T13:02:26.091Z</time></trkpt><trkpt lat="45.7063133" lon="10.783445"><ele>658.0</ele><time>2026-04-25T13:02:27.092Z</time></trkpt><trkpt lat="45.7062617" lon="10.783335"><ele>658.0</ele><time>2026-04-25T13:02:28.091Z</time></trkpt><trkpt lat="45.7062117" lon="10.78323"><ele>654.5</ele><time>2026-04-25T13:02:29.092Z</time></trkpt><trkpt lat="45.7061667" lon="10.7831467"><ele>651.0</ele><time>2026-04-25T13:02:30.091Z</time></trkpt><trkpt lat="45.7061167" lon="10.783075"><ele>647.5</ele><time>2026-04-25T13:02:31.092Z</time></trkpt><trkpt lat="45.7060717" lon="10.7829883"><ele>644.0</ele><time>2026-04-25T13:02:33.092Z</time></trkpt><trkpt lat="45.7061467" lon="10.7829533"><ele>640.5</ele><time>2026-04-25T13:02:35.091Z</time></trkpt><trkpt lat="45.706245" lon="10.7830583"><ele>637.0</ele><time>2026-04-25T13:02:37.092Z</time></trkpt><trkpt lat="45.7063017" lon="10.7831117"><ele>636.0</ele><time>2026-04-25T13:02:38.091Z</time></trkpt><trkpt lat="45.706375" lon="10.78315"><ele>635.0</ele><time>2026-04-25T13:02:39.092Z</time></trkpt><trkpt lat="45.7064583" lon="10.7831717"><ele>634.0</ele><time>2026-04-25T13:02:40.092Z</time></trkpt><trkpt lat="45.7065567" lon="10.7831917"><ele>633.0</ele><time>2026-04-25T13:02:41.092Z</time></trkpt><trkpt lat="45.706665" lon="10.7832233"><ele>632.0</ele><time>2026-04-25T13:02:42.092Z</time></trkpt><trkpt lat="45.70677" lon="10.7832817"><ele>632.0</ele><time>2026-04-25T13:02:43.092Z</time></trkpt><trkpt lat="45.7068767" lon="10.7833367"><ele>632.0</ele><time>2026-04-25T13:02:44.092Z</time></trkpt><trkpt lat="45.706975" lon="10.7833917"><ele>632.0</ele><time>2026-04-25T13:02:45.092Z</time></trkpt><trkpt lat="45.7070833" lon="10.783445"><ele>632.0</ele><time>2026-04-25T13:02:46.092Z</time></trkpt><trkpt lat="45.707185" lon="10.7834933"><ele>632.0</ele><time>2026-04-25T13:02:47.092Z</time></trkpt><trkpt lat="45.707285" lon="10.783535"><ele>632.6</ele><time>2026-04-25T13:02:48.092Z</time></trkpt><trkpt lat="45.707385" lon="10.7835683"><ele>633.2</ele><time>2026-04-25T13:02:49.092Z</time></trkpt><trkpt lat="45.707485" lon="10.7836133"><ele>633.8</ele><time>2026-04-25T13:02:50.092Z</time></trkpt><trkpt lat="45.7075883" lon="10.7836533"><ele>634.4</ele><time>2026-04-25T13:02:51.092Z</time></trkpt><trkpt lat="45.7076883" lon="10.7837067"><ele>635.0</ele><time>2026-04-25T13:02:52.092Z</time></trkpt><trkpt lat="45.7077917" lon="10.7837617"><ele>630.3333333333333</ele><time>2026-04-25T13:02:53.092Z</time></trkpt><trkpt lat="45.7078833" lon="10.7838083"><ele>625.6666666666666</ele><time>2026-04-25T13:02:54.092Z</time></trkpt><trkpt lat="45.7079633" lon="10.7838617"><ele>621.0</ele><time>2026-04-25T13:02:55.092Z</time></trkpt><trkpt lat="45.7080417" lon="10.7838983"><ele>616.3333333333334</ele><time>2026-04-25T13:02:56.092Z</time></trkpt><trkpt lat="45.7081167" lon="10.7839267"><ele>611.6666666666667</ele><time>2026-04-25T13:02:57.092Z</time></trkpt><trkpt lat="45.7081983" lon="10.78393"><ele>607.0</ele><time>2026-04-25T13:02:58.091Z</time></trkpt><trkpt lat="45.7082933" lon="10.7839133"><ele>607.0</ele><time>2026-04-25T13:02:59.092Z</time></trkpt><trkpt lat="45.7083967" lon="10.783895"><ele>607.0</ele><time>2026-04-25T13:03:00.091Z</time></trkpt><trkpt lat="45.7084967" lon="10.78388"><ele>607.0</ele><time>2026-04-25T13:03:01.092Z</time></trkpt><trkpt lat="45.7085967" lon="10.7838867"><ele>607.0</ele><time>2026-04-25T13:03:02.091Z</time></trkpt><trkpt lat="45.7086933" lon="10.7838917"><ele>607.0</ele><time>2026-04-25T13:03:03.092Z</time></trkpt><trkpt lat="45.7087867" lon="10.78391"><ele>602.4</ele><time>2026-04-25T13:03:04.092Z</time></trkpt><trkpt lat="45.7088983" lon="10.78394"><ele>597.8000000000001</ele><time>2026-04-25T13:03:05.092Z</time></trkpt><trkpt lat="45.7090083" lon="10.7839783"><ele>593.2</ele><time>2026-04-25T13:03:06.091Z</time></trkpt><trkpt lat="45.7091183" lon="10.784015"><ele>588.6</ele><time>2026-04-25T13:03:07.092Z</time></trkpt><trkpt lat="45.7092233" lon="10.7840517"><ele>584.0</ele><time>2026-04-25T13:03:08.092Z</time></trkpt><trkpt lat="45.7093267" lon="10.7840783"><ele>580.0</ele><time>2026-04-25T13:03:09.092Z</time></trkpt><trkpt lat="45.7094317" lon="10.7840933"><ele>576.0</ele><time>2026-04-25T13:03:10.092Z</time></trkpt><trkpt lat="45.7095267" lon="10.7840933"><ele>572.0</ele><time>2026-04-25T13:03:11.091Z</time></trkpt><trkpt lat="45.7096267" lon="10.7840783"><ele>568.0</ele><time>2026-04-25T13:03:12.092Z</time></trkpt><trkpt lat="45.7097033" lon="10.7840583"><ele>564.0</ele><time>2026-04-25T13:03:13.092Z</time></trkpt><trkpt lat="45.7097883" lon="10.7840417"><ele>564.0</ele><time>2026-04-25T13:03:14.092Z</time></trkpt><trkpt lat="45.7098683" lon="10.7840483"><ele>564.0</ele><time>2026-04-25T13:03:15.091Z</time></trkpt><trkpt lat="45.70995" lon="10.7840733"><ele>564.0</ele><time>2026-04-25T13:03:16.091Z</time></trkpt><trkpt lat="45.7100283" lon="10.78411"><ele>564.0</ele><time>2026-04-25T13:03:17.092Z</time></trkpt><trkpt lat="45.7100967" lon="10.7841333"><ele>564.0</ele><time>2026-04-25T13:03:18.092Z</time></trkpt><trkpt lat="45.71016" lon="10.7841617"><ele>564.0</ele><time>2026-04-25T13:03:19.091Z</time></trkpt><trkpt lat="45.7102283" lon="10.784185"><ele>563.6666666666666</ele><time>2026-04-25T13:03:20.092Z</time></trkpt><trkpt lat="45.7103017" lon="10.784215"><ele>563.3333333333334</ele><time>2026-04-25T13:03:21.092Z</time></trkpt><trkpt lat="45.71038" lon="10.7842517"><ele>563.0</ele><time>2026-04-25T13:03:22.092Z</time></trkpt><trkpt lat="45.7104633" lon="10.7842933"><ele>562.6666666666667</ele><time>2026-04-25T13:03:23.092Z</time></trkpt><trkpt lat="45.71055" lon="10.7843383"><ele>562.3333333333334</ele><time>2026-04-25T13:03:24.091Z</time></trkpt><trkpt lat="45.7106317" lon="10.7843917"><ele>562.0</ele><time>2026-04-25T13:03:25.092Z</time></trkpt><trkpt lat="45.710715" lon="10.78444"><ele>562.0</ele><time>2026-04-25T13:03:26.092Z</time></trkpt><trkpt lat="45.7107967" lon="10.7844967"><ele>562.0</ele><time>2026-04-25T13:03:27.092Z</time></trkpt><trkpt lat="45.7108833" lon="10.7845433"><ele>562.0</ele><time>2026-04-25T13:03:28.092Z</time></trkpt><trkpt lat="45.7109733" lon="10.7845833"><ele>562.0</ele><time>2026-04-25T13:03:29.092Z</time></trkpt><trkpt lat="45.7110667" lon="10.7846333"><ele>562.0</ele><time>2026-04-25T13:03:30.092Z</time></trkpt><trkpt lat="45.71116" lon="10.7846933"><ele>555.0</ele><time>2026-04-25T13:03:31.092Z</time></trkpt><trkpt lat="45.7112467" lon="10.7847517"><ele>548.0</ele><time>2026-04-25T13:03:32.092Z</time></trkpt><trkpt lat="45.7113333" lon="10.78483"><ele>541.0</ele><time>2026-04-25T13:03:33.092Z</time></trkpt><trkpt lat="45.711415" lon="10.78491"><ele>534.0</ele><time>2026-04-25T13:03:34.092Z</time></trkpt><trkpt lat="45.7114983" lon="10.7849867"><ele>527.0</ele><time>2026-04-25T13:03:35.092Z</time></trkpt><trkpt lat="45.7115833" lon="10.7850517"><ele>527.0</ele><time>2026-04-25T13:03:36.091Z</time></trkpt><trkpt lat="45.7116767" lon="10.78512"><ele>527.0</ele><time>2026-04-25T13:03:37.092Z</time></trkpt><trkpt lat="45.711765" lon="10.7851817"><ele>527.0</ele><time>2026-04-25T13:03:38.092Z</time></trkpt><trkpt lat="45.71185" lon="10.7852367"><ele>527.0</ele><time>2026-04-25T13:03:39.092Z</time></trkpt><trkpt lat="45.71193" lon="10.7852833"><ele>527.0</ele><time>2026-04-25T13:03:40.092Z</time></trkpt><trkpt lat="45.71199" lon="10.7853317"><ele>525.8333333333333</ele><time>2026-04-25T13:03:41.092Z</time></trkpt><trkpt lat="45.7120583" lon="10.7853683"><ele>524.6666666666666</ele><time>2026-04-25T13:03:42.092Z</time></trkpt><trkpt lat="45.712135" lon="10.7853883"><ele>523.5</ele><time>2026-04-25T13:03:43.092Z</time></trkpt><trkpt lat="45.7122117" lon="10.7853867"><ele>522.3333333333334</ele><time>2026-04-25T13:03:44.092Z</time></trkpt><trkpt lat="45.7123017" lon="10.7853883"><ele>521.1666666666667</ele><time>2026-04-25T13:03:45.092Z</time></trkpt><trkpt lat="45.7124017" lon="10.7853867"><ele>520.0</ele><time>2026-04-25T13:03:46.091Z</time></trkpt><trkpt lat="45.7124983" lon="10.78541"><ele>520.0</ele><time>2026-04-25T13:03:47.092Z</time></trkpt><trkpt lat="45.7125917" lon="10.7854633"><ele>520.0</ele><time>2026-04-25T13:03:48.092Z</time></trkpt><trkpt lat="45.7126767" lon="10.7855317"><ele>520.0</ele><time>2026-04-25T13:03:49.091Z</time></trkpt><trkpt lat="45.7127483" lon="10.7856167"><ele>520.0</ele><time>2026-04-25T13:03:50.092Z</time></trkpt><trkpt lat="45.7128217" lon="10.78573"><ele>520.0</ele><time>2026-04-25T13:03:51.092Z</time></trkpt><trkpt lat="45.7128883" lon="10.785825"><ele>519.1666666666667</ele><time>2026-04-25T13:03:52.092Z</time></trkpt><trkpt lat="45.7129533" lon="10.785905"><ele>518.3333333333334</ele><time>2026-04-25T13:03:53.092Z</time></trkpt><trkpt lat="45.7130083" lon="10.7859783"><ele>517.5</ele><time>2026-04-25T13:03:54.092Z</time></trkpt><trkpt lat="45.7130667" lon="10.7860433"><ele>516.6666666666666</ele><time>2026-04-25T13:03:55.092Z</time></trkpt><trkpt lat="45.7131267" lon="10.7860883"><ele>515.8333333333333</ele><time>2026-04-25T13:03:56.092Z</time></trkpt><trkpt lat="45.7132017" lon="10.7861117"><ele>515.0</ele><time>2026-04-25T13:03:57.091Z</time></trkpt><trkpt lat="45.7132833" lon="10.786115"><ele>515.0</ele><time>2026-04-25T13:03:58.092Z</time></trkpt><trkpt lat="45.7133717" lon="10.786125"><ele>515.0</ele><time>2026-04-25T13:03:59.092Z</time></trkpt><trkpt lat="45.7134617" lon="10.7861567"><ele>515.0</ele><time>2026-04-25T13:04:00.092Z</time></trkpt><trkpt lat="45.71356" lon="10.7862"><ele>515.0</ele><time>2026-04-25T13:04:01.091Z</time></trkpt><trkpt lat="45.7136617" lon="10.7862583"><ele>515.0</ele><time>2026-04-25T13:04:02.092Z</time></trkpt><trkpt lat="45.713775" lon="10.78632"><ele>508.0</ele><time>2026-04-25T13:04:03.092Z</time></trkpt><trkpt lat="45.713885" lon="10.7863883"><ele>501.0</ele><time>2026-04-25T13:04:04.092Z</time></trkpt><trkpt lat="45.713985" lon="10.78645"><ele>494.0</ele><time>2026-04-25T13:04:05.092Z</time></trkpt><trkpt lat="45.7140817" lon="10.7865083"><ele>487.0</ele><time>2026-04-25T13:04:06.091Z</time></trkpt><trkpt lat="45.714175" lon="10.7865617"><ele>480.0</ele><time>2026-04-25T13:04:07.092Z</time></trkpt><trkpt lat="45.7142517" lon="10.786615"><ele>480.0</ele><time>2026-04-25T13:04:08.092Z</time></trkpt><trkpt lat="45.714315" lon="10.7866733"><ele>480.0</ele><time>2026-04-25T13:04:09.092Z</time></trkpt><trkpt lat="45.71437" lon="10.786745"><ele>480.0</ele><time>2026-04-25T13:04:10.092Z</time></trkpt><trkpt lat="45.7144183" lon="10.7868167"><ele>480.0</ele><time>2026-04-25T13:04:11.092Z</time></trkpt><trkpt lat="45.7144733" lon="10.7868783"><ele>480.0</ele><time>2026-04-25T13:04:12.092Z</time></trkpt><trkpt lat="45.7145483" lon="10.786925"><ele>480.0</ele><time>2026-04-25T13:04:13.092Z</time></trkpt><trkpt lat="45.7146333" lon="10.7869383"><ele>479.0</ele><time>2026-04-25T13:04:14.091Z</time></trkpt><trkpt lat="45.71473" lon="10.786935"><ele>478.0</ele><time>2026-04-25T13:04:15.091Z</time></trkpt><trkpt lat="45.7148267" lon="10.7869433"><ele>477.0</ele><time>2026-04-25T13:04:16.092Z</time></trkpt><trkpt lat="45.714935" lon="10.78698"><ele>476.0</ele><time>2026-04-25T13:04:17.092Z</time></trkpt><trkpt lat="45.7150467" lon="10.787035"><ele>475.0</ele><time>2026-04-25T13:04:18.092Z</time></trkpt><trkpt lat="45.7151583" lon="10.787095"><ele>467.5</ele><time>2026-04-25T13:04:19.091Z</time></trkpt><trkpt lat="45.7152783" lon="10.7871417"><ele>460.0</ele><time>2026-04-25T13:04:20.091Z</time></trkpt><trkpt lat="45.7154017" lon="10.7872"><ele>452.5</ele><time>2026-04-25T13:04:21.092Z</time></trkpt><trkpt lat="45.7155217" lon="10.7872567"><ele>445.0</ele><time>2026-04-25T13:04:22.092Z</time></trkpt><trkpt lat="45.7156483" lon="10.7873033"><ele>445.0</ele><time>2026-04-25T13:04:23.092Z</time></trkpt><trkpt lat="45.7157617" lon="10.787355"><ele>445.0</ele><time>2026-04-25T13:04:24.092Z</time></trkpt><trkpt lat="45.7158733" lon="10.787405"><ele>445.0</ele><time>2026-04-25T13:04:25.092Z</time></trkpt><trkpt lat="45.7159817" lon="10.787455"><ele>445.0</ele><time>2026-04-25T13:04:26.092Z</time></trkpt><trkpt lat="45.716065" lon="10.7875133"><ele>445.0</ele><time>2026-04-25T13:04:27.092Z</time></trkpt><trkpt lat="45.71614" lon="10.7875717"><ele>443.83333333333337</ele><time>2026-04-25T13:04:28.091Z</time></trkpt><trkpt lat="45.7162133" lon="10.7876383"><ele>442.6666666666667</ele><time>2026-04-25T13:04:29.092Z</time></trkpt><trkpt lat="45.7162567" lon="10.7877233"><ele>441.5</ele><time>2026-04-25T13:04:30.092Z</time></trkpt><trkpt lat="45.7162933" lon="10.7878183"><ele>440.33333333333337</ele><time>2026-04-25T13:04:31.092Z</time></trkpt><trkpt lat="45.7163467" lon="10.7878833"><ele>439.1666666666667</ele><time>2026-04-25T13:04:32.092Z</time></trkpt><trkpt lat="45.7164117" lon="10.7879383"><ele>438.0</ele><time>2026-04-25T13:04:33.091Z</time></trkpt><trkpt lat="45.7165017" lon="10.7879783"><ele>438.0</ele><time>2026-04-25T13:04:34.091Z</time></trkpt><trkpt lat="45.7165817" lon="10.7880217"><ele>438.0</ele><time>2026-04-25T13:04:35.092Z</time></trkpt><trkpt lat="45.7166467" lon="10.7880733"><ele>438.0</ele><time>2026-04-25T13:04:36.091Z</time></trkpt><trkpt lat="45.7167" lon="10.788135"><ele>438.0</ele><time>2026-04-25T13:04:37.092Z</time></trkpt><trkpt lat="45.716775" lon="10.7882283"><ele>438.0</ele><time>2026-04-25T13:04:39.092Z</time></trkpt><trkpt lat="45.716775" lon="10.788095"><ele>438.0</ele><time>2026-04-25T13:04:42.092Z</time></trkpt><trkpt lat="45.7167283" lon="10.7880183"><ele>438.0</ele><time>2026-04-25T13:04:43.092Z</time></trkpt><trkpt lat="45.7166833" lon="10.78792"><ele>437.99999999999994</ele><time>2026-04-25T13:04:44.092Z</time></trkpt><trkpt lat="45.7166233" lon="10.7878033"><ele>437.99999999999994</ele><time>2026-04-25T13:04:45.092Z</time></trkpt><trkpt lat="45.7165883" lon="10.78768"><ele>438.0</ele><time>2026-04-25T13:04:46.091Z</time></trkpt><trkpt lat="45.7165467" lon="10.7875567"><ele>438.0</ele><time>2026-04-25T13:04:47.092Z</time></trkpt><trkpt lat="45.7165083" lon="10.78743"><ele>432.8333333333333</ele><time>2026-04-25T13:04:48.092Z</time></trkpt><trkpt lat="45.7164733" lon="10.7872933"><ele>427.66666666666663</ele><time>2026-04-25T13:04:49.092Z</time></trkpt><trkpt lat="45.71644" lon="10.7871667"><ele>422.5</ele><time>2026-04-25T13:04:50.092Z</time></trkpt><trkpt lat="45.7164083" lon="10.7870617"><ele>417.3333333333333</ele><time>2026-04-25T13:04:51.091Z</time></trkpt><trkpt lat="45.7163667" lon="10.7869733"><ele>412.16666666666663</ele><time>2026-04-25T13:04:52.091Z</time></trkpt><trkpt lat="45.7163267" lon="10.7868967"><ele>407.0</ele><time>2026-04-25T13:04:53.092Z</time></trkpt><trkpt lat="45.7162633" lon="10.7867883"><ele>406.99999999999994</ele><time>2026-04-25T13:04:55.091Z</time></trkpt><trkpt lat="45.7163133" lon="10.7867333"><ele>407.0</ele><time>2026-04-25T13:04:57.091Z</time></trkpt><trkpt lat="45.7163983" lon="10.7867933"><ele>407.0</ele><time>2026-04-25T13:04:59.092Z</time></trkpt><trkpt lat="45.716465" lon="10.7868433"><ele>407.0</ele><time>2026-04-25T13:05:00.092Z</time></trkpt><trkpt lat="45.7165467" lon="10.786885"><ele>406.99999999999994</ele><time>2026-04-25T13:05:01.092Z</time></trkpt><trkpt lat="45.71663" lon="10.78692"><ele>407.0</ele><time>2026-04-25T13:05:02.092Z</time></trkpt><trkpt lat="45.7167033" lon="10.78696"><ele>406.99999999999994</ele><time>2026-04-25T13:05:03.091Z</time></trkpt><trkpt lat="45.71677" lon="10.7870183"><ele>407.0</ele><time>2026-04-25T13:05:04.092Z</time></trkpt><trkpt lat="45.716835" lon="10.7870833"><ele>407.0</ele><time>2026-04-25T13:05:05.091Z</time></trkpt><trkpt lat="45.7168983" lon="10.78714"><ele>407.0</ele><time>2026-04-25T13:05:06.092Z</time></trkpt><trkpt lat="45.71697" lon="10.7871767"><ele>406.99999999999994</ele><time>2026-04-25T13:05:07.092Z</time></trkpt><trkpt lat="45.71705" lon="10.7872067"><ele>407.0</ele><time>2026-04-25T13:05:08.092Z</time></trkpt><trkpt lat="45.7171267" lon="10.78723"><ele>401.8333333333333</ele><time>2026-04-25T13:05:09.092Z</time></trkpt><trkpt lat="45.7171933" lon="10.7872683"><ele>396.66666666666663</ele><time>2026-04-25T13:05:10.092Z</time></trkpt><trkpt lat="45.7172567" lon="10.78731"><ele>391.5</ele><time>2026-04-25T13:05:11.092Z</time></trkpt><trkpt lat="45.717355" lon="10.787335"><ele>386.3333333333333</ele><time>2026-04-25T13:05:13.092Z</time></trkpt><trkpt lat="45.7173283" lon="10.7872117"><ele>381.16666666666663</ele><time>2026-04-25T13:05:16.092Z</time></trkpt><trkpt lat="45.7172383" lon="10.7871383"><ele>376.0</ele><time>2026-04-25T13:05:17.092Z</time></trkpt><trkpt lat="45.7171617" lon="10.7870467"><ele>376.0</ele><time>2026-04-25T13:05:18.091Z</time></trkpt><trkpt lat="45.717085" lon="10.7869417"><ele>376.0</ele><time>2026-04-25T13:05:19.092Z</time></trkpt><trkpt lat="45.7170167" lon="10.786835"><ele>376.0</ele><time>2026-04-25T13:05:20.092Z</time></trkpt><trkpt lat="45.7169467" lon="10.7867267"><ele>376.0</ele><time>2026-04-25T13:05:21.092Z</time></trkpt><trkpt lat="45.716895" lon="10.7866167"><ele>376.0</ele><time>2026-04-25T13:05:22.092Z</time></trkpt><trkpt lat="45.7168417" lon="10.7864983"><ele>377.4</ele><time>2026-04-25T13:05:23.092Z</time></trkpt><trkpt lat="45.716785" lon="10.7863767"><ele>378.8</ele><time>2026-04-25T13:05:24.092Z</time></trkpt><trkpt lat="45.7167333" lon="10.7862583"><ele>380.2</ele><time>2026-04-25T13:05:25.092Z</time></trkpt><trkpt lat="45.7166833" lon="10.7861283"><ele>381.59999999999997</ele><time>2026-04-25T13:05:26.091Z</time></trkpt><trkpt lat="45.7166383" lon="10.786"><ele>383.0</ele><time>2026-04-25T13:05:27.091Z</time></trkpt><trkpt lat="45.7166" lon="10.7858683"><ele>378.33333333333337</ele><time>2026-04-25T13:05:28.092Z</time></trkpt><trkpt lat="45.7165583" lon="10.7857417"><ele>373.6666666666667</ele><time>2026-04-25T13:05:29.092Z</time></trkpt><trkpt lat="45.7165233" lon="10.7856283"><ele>369.0</ele><time>2026-04-25T13:05:30.092Z</time></trkpt><trkpt lat="45.716485" lon="10.7855317"><ele>364.3333333333333</ele><time>2026-04-25T13:05:31.092Z</time></trkpt><trkpt lat="45.716435" lon="10.7854"><ele>359.66666666666663</ele><time>2026-04-25T13:05:33.091Z</time></trkpt><trkpt lat="45.7165" lon="10.7853367"><ele>355.0</ele><time>2026-04-25T13:05:36.092Z</time></trkpt><trkpt lat="45.7165483" lon="10.785395"><ele>355.0</ele><time>2026-04-25T13:05:37.092Z</time></trkpt><trkpt lat="45.7165967" lon="10.7854767"><ele>355.0</ele><time>2026-04-25T13:05:38.092Z</time></trkpt><trkpt lat="45.7166467" lon="10.7855617"><ele>355.0</ele><time>2026-04-25T13:05:39.092Z</time></trkpt><trkpt lat="45.7167117" lon="10.7856333"><ele>355.0</ele><time>2026-04-25T13:05:40.092Z</time></trkpt><trkpt lat="45.7167783" lon="10.7856983"><ele>355.0</ele><time>2026-04-25T13:05:41.092Z</time></trkpt><trkpt lat="45.7168567" lon="10.7857533"><ele>355.0</ele><time>2026-04-25T13:05:42.093Z</time></trkpt><trkpt lat="45.7169417" lon="10.7857917"><ele>349.4</ele><time>2026-04-25T13:05:43.093Z</time></trkpt><trkpt lat="45.71702" lon="10.78581"><ele>343.8</ele><time>2026-04-25T13:05:44.093Z</time></trkpt><trkpt lat="45.717115" lon="10.7858083"><ele>338.20000000000005</ele><time>2026-04-25T13:05:45.092Z</time></trkpt><trkpt lat="45.7172283" lon="10.7857933"><ele>332.6</ele><time>2026-04-25T13:05:46.092Z</time></trkpt><trkpt lat="45.7173333" lon="10.7857917"><ele>327.0</ele><time>2026-04-25T13:05:47.093Z</time></trkpt><trkpt lat="45.7174317" lon="10.7857983"><ele>327.0</ele><time>2026-04-25T13:05:48.092Z</time></trkpt><trkpt lat="45.7175267" lon="10.7858033"><ele>327.0</ele><time>2026-04-25T13:05:49.092Z</time></trkpt><trkpt lat="45.7176083" lon="10.78581"><ele>327.0</ele><time>2026-04-25T13:05:50.093Z</time></trkpt><trkpt lat="45.7176733" lon="10.7858067"><ele>327.0</ele><time>2026-04-25T13:05:51.093Z</time></trkpt><trkpt lat="45.7177633" lon="10.7857467"><ele>327.0</ele><time>2026-04-25T13:05:53.093Z</time></trkpt><trkpt lat="45.7177333" lon="10.7856183"><ele>327.0</ele><time>2026-04-25T13:05:55.093Z</time></trkpt><trkpt lat="45.7176367" lon="10.7855117"><ele>327.0</ele><time>2026-04-25T13:05:57.093Z</time></trkpt><trkpt lat="45.7175583" lon="10.7854583"><ele>327.0</ele><time>2026-04-25T13:05:58.092Z</time></trkpt><trkpt lat="45.7174833" lon="10.7853833"><ele>327.0</ele><time>2026-04-25T13:05:59.093Z</time></trkpt><trkpt lat="45.7174233" lon="10.7852833"><ele>327.0</ele><time>2026-04-25T13:06:00.093Z</time></trkpt><trkpt lat="45.7173717" lon="10.7851717"><ele>327.0</ele><time>2026-04-25T13:06:01.093Z</time></trkpt><trkpt lat="45.7173217" lon="10.785065"><ele>322.6666666666667</ele><time>2026-04-25T13:06:02.093Z</time></trkpt><trkpt lat="45.7172733" lon="10.7849817"><ele>318.3333333333333</ele><time>2026-04-25T13:06:03.093Z</time></trkpt><trkpt lat="45.71722" lon="10.7849317"><ele>314.0</ele><time>2026-04-25T13:06:04.093Z</time></trkpt><trkpt lat="45.717185" lon="10.7848517"><ele>309.66666666666663</ele><time>2026-04-25T13:06:06.092Z</time></trkpt><trkpt lat="45.71728" lon="10.7848317"><ele>305.3333333333333</ele><time>2026-04-25T13:06:08.093Z</time></trkpt><trkpt lat="45.7173517" lon="10.7848417"><ele>301.0</ele><time>2026-04-25T13:06:09.093Z</time></trkpt><trkpt lat="45.7174417" lon="10.7848617"><ele>301.0</ele><time>2026-04-25T13:06:10.093Z</time></trkpt><trkpt lat="45.71754" lon="10.784875"><ele>301.0</ele><time>2026-04-25T13:06:11.093Z</time></trkpt><trkpt lat="45.71764" lon="10.7848683"><ele>301.0</ele><time>2026-04-25T13:06:12.093Z</time></trkpt><trkpt lat="45.7177417" lon="10.7848467"><ele>301.0</ele><time>2026-04-25T13:06:13.093Z</time></trkpt><trkpt lat="45.717845" lon="10.7848117"><ele>301.0</ele><time>2026-04-25T13:06:14.092Z</time></trkpt><trkpt lat="45.7179267" lon="10.7847867"><ele>297.5</ele><time>2026-04-25T13:06:15.093Z</time></trkpt><trkpt lat="45.7180017" lon="10.7847917"><ele>294.0</ele><time>2026-04-25T13:06:16.093Z</time></trkpt><trkpt lat="45.7180733" lon="10.784835"><ele>290.5</ele><time>2026-04-25T13:06:17.092Z</time></trkpt><trkpt lat="45.718145" lon="10.7848983"><ele>287.0</ele><time>2026-04-25T13:06:18.093Z</time></trkpt><trkpt lat="45.71822" lon="10.7849767"><ele>283.5</ele><time>2026-04-25T13:06:19.093Z</time></trkpt><trkpt lat="45.7183117" lon="10.78503"><ele>280.0</ele><time>2026-04-25T13:06:20.092Z</time></trkpt><trkpt lat="45.718415" lon="10.7850633"><ele>280.0</ele><time>2026-04-25T13:06:21.092Z</time></trkpt><trkpt lat="45.7185317" lon="10.78508"><ele>280.0</ele><time>2026-04-25T13:06:22.093Z</time></trkpt><trkpt lat="45.7186567" lon="10.785105"><ele>280.0</ele><time>2026-04-25T13:06:23.093Z</time></trkpt><trkpt lat="45.7187817" lon="10.785135"><ele>280.0</ele><time>2026-04-25T13:06:24.093Z</time></trkpt><trkpt lat="45.7189083" lon="10.7851667"><ele>280.25</ele><time>2026-04-25T13:06:25.093Z</time></trkpt><trkpt lat="45.71903" lon="10.785195"><ele>280.5</ele><time>2026-04-25T13:06:26.093Z</time></trkpt><trkpt lat="45.7191467" lon="10.7852267"><ele>280.75</ele><time>2026-04-25T13:06:27.093Z</time></trkpt><trkpt lat="45.719255" lon="10.785255"><ele>281.0</ele><time>2026-04-25T13:06:28.093Z</time></trkpt><trkpt lat="45.7193517" lon="10.785285"><ele>277.5</ele><time>2026-04-25T13:06:29.093Z</time></trkpt><trkpt lat="45.7194283" lon="10.7853267"><ele>274.0</ele><time>2026-04-25T13:06:30.093Z</time></trkpt><trkpt lat="45.7194917" lon="10.785375"><ele>270.5</ele><time>2026-04-25T13:06:31.092Z</time></trkpt><trkpt lat="45.719555" lon="10.7854067"><ele>267.0</ele><time>2026-04-25T13:06:32.093Z</time></trkpt><trkpt lat="45.7195967" lon="10.7853317"><ele>263.5</ele><time>2026-04-25T13:06:35.093Z</time></trkpt><trkpt lat="45.71952" lon="10.7852183"><ele>260.0</ele><time>2026-04-25T13:06:37.093Z</time></trkpt><trkpt lat="45.7194467" lon="10.7851517"><ele>259.4</ele><time>2026-04-25T13:06:38.092Z</time></trkpt><trkpt lat="45.719385" lon="10.7850717"><ele>258.8</ele><time>2026-04-25T13:06:39.093Z</time></trkpt><trkpt lat="45.71932" lon="10.784975"><ele>258.2</ele><time>2026-04-25T13:06:40.093Z</time></trkpt><trkpt lat="45.7192517" lon="10.7848783"><ele>257.6</ele><time>2026-04-25T13:06:41.093Z</time></trkpt><trkpt lat="45.7191717" lon="10.784775"><ele>257.0</ele><time>2026-04-25T13:06:42.092Z</time></trkpt><trkpt lat="45.71909" lon="10.7846717"><ele>257.0</ele><time>2026-04-25T13:06:43.092Z</time></trkpt><trkpt lat="45.7190083" lon="10.7845617"><ele>257.0</ele><time>2026-04-25T13:06:44.093Z</time></trkpt><trkpt lat="45.71894" lon="10.78446"><ele>257.0</ele><time>2026-04-25T13:06:45.092Z</time></trkpt><trkpt lat="45.7188717" lon="10.7843617"><ele>257.0</ele><time>2026-04-25T13:06:46.093Z</time></trkpt><trkpt lat="45.7188083" lon="10.7842567"><ele>257.0</ele><time>2026-04-25T13:06:47.093Z</time></trkpt><trkpt lat="45.7187433" lon="10.7841467"><ele>256.83333333333337</ele><time>2026-04-25T13:06:48.093Z</time></trkpt><trkpt lat="45.718685" lon="10.7840367"><ele>256.6666666666667</ele><time>2026-04-25T13:06:49.093Z</time></trkpt><trkpt lat="45.718645" lon="10.7839267"><ele>256.5</ele><time>2026-04-25T13:06:50.092Z</time></trkpt><trkpt lat="45.7186117" lon="10.783825"><ele>256.3333333333333</ele><time>2026-04-25T13:06:51.092Z</time></trkpt><trkpt lat="45.7185767" lon="10.783735"><ele>256.16666666666663</ele><time>2026-04-25T13:06:52.093Z</time></trkpt><trkpt lat="45.71854" lon="10.7836533"><ele>256.0</ele><time>2026-04-25T13:06:53.092Z</time></trkpt><trkpt lat="45.7184433" lon="10.7835417"><ele>251.4</ele><time>2026-04-25T13:06:55.093Z</time></trkpt><trkpt lat="45.718375" lon="10.7834917"><ele>246.8</ele><time>2026-04-25T13:06:56.093Z</time></trkpt><trkpt lat="45.7183117" lon="10.7834117"><ele>242.20000000000002</ele><time>2026-04-25T13:06:57.092Z</time></trkpt><trkpt lat="45.7182583" lon="10.7833083"><ele>237.60000000000002</ele><time>2026-04-25T13:06:58.093Z</time></trkpt><trkpt lat="45.7182133" lon="10.7831767"><ele>233.0</ele><time>2026-04-25T13:06:59.093Z</time></trkpt><trkpt lat="45.7181733" lon="10.783035"><ele>233.0</ele><time>2026-04-25T13:07:00.093Z</time></trkpt><trkpt lat="45.7181367" lon="10.7828917"><ele>233.0</ele><time>2026-04-25T13:07:01.093Z</time></trkpt><trkpt lat="45.718105" lon="10.7827467"><ele>233.0</ele><time>2026-04-25T13:07:02.093Z</time></trkpt><trkpt lat="45.718075" lon="10.782605"><ele>233.0</ele><time>2026-04-25T13:07:03.093Z</time></trkpt><trkpt lat="45.7180333" lon="10.7824633"><ele>233.0</ele><time>2026-04-25T13:07:04.093Z</time></trkpt><trkpt lat="45.717995" lon="10.78234"><ele>229.4</ele><time>2026-04-25T13:07:05.093Z</time></trkpt><trkpt lat="45.7179483" lon="10.782205"><ele>225.8</ele><time>2026-04-25T13:07:06.093Z</time></trkpt><trkpt lat="45.717895" lon="10.7820917"><ele>222.2</ele><time>2026-04-25T13:07:07.093Z</time></trkpt><trkpt lat="45.7178517" lon="10.7819933"><ele>218.6</ele><time>2026-04-25T13:07:08.092Z</time></trkpt><trkpt lat="45.71781" lon="10.781915"><ele>215.0</ele><time>2026-04-25T13:07:09.093Z</time></trkpt><trkpt lat="45.7177317" lon="10.7818167"><ele>214.2</ele><time>2026-04-25T13:07:11.093Z</time></trkpt><trkpt lat="45.7177983" lon="10.7817933"><ele>213.4</ele><time>2026-04-25T13:07:14.093Z</time></trkpt><trkpt lat="45.7178583" lon="10.7818233"><ele>212.60000000000002</ele><time>2026-04-25T13:07:15.093Z</time></trkpt><trkpt lat="45.7179517" lon="10.7818683"><ele>211.8</ele><time>2026-04-25T13:07:16.092Z</time></trkpt><trkpt lat="45.7180617" lon="10.7819133"><ele>211.0</ele><time>2026-04-25T13:07:17.093Z</time></trkpt><trkpt lat="45.7181783" lon="10.781965"><ele>211.0</ele><time>2026-04-25T13:07:18.093Z</time></trkpt><trkpt lat="45.7182933" lon="10.78202"><ele>211.0</ele><time>2026-04-25T13:07:19.093Z</time></trkpt><trkpt lat="45.7184" lon="10.7820633"><ele>211.0</ele><time>2026-04-25T13:07:20.093Z</time></trkpt><trkpt lat="45.718505" lon="10.7821183"><ele>211.0</ele><time>2026-04-25T13:07:21.093Z</time></trkpt><trkpt lat="45.7186133" lon="10.7821667"><ele>207.16666666666666</ele><time>2026-04-25T13:07:22.093Z</time></trkpt><trkpt lat="45.7187067" lon="10.782215"><ele>203.33333333333331</ele><time>2026-04-25T13:07:23.093Z</time></trkpt><trkpt lat="45.7187933" lon="10.7822567"><ele>199.5</ele><time>2026-04-25T13:07:24.092Z</time></trkpt><trkpt lat="45.718865" lon="10.7823017"><ele>195.66666666666666</ele><time>2026-04-25T13:07:25.093Z</time></trkpt><trkpt lat="45.7189383" lon="10.7823717"><ele>191.83333333333331</ele><time>2026-04-25T13:07:27.092Z</time></trkpt><trkpt lat="45.7189633" lon="10.7822583"><ele>188.0</ele><time>2026-04-25T13:07:30.093Z</time></trkpt><trkpt lat="45.718865" lon="10.7821133"><ele>188.0</ele><time>2026-04-25T13:07:32.093Z</time></trkpt><trkpt lat="45.7187917" lon="10.7820217"><ele>188.0</ele><time>2026-04-25T13:07:33.092Z</time></trkpt><trkpt lat="45.718735" lon="10.7819267"><ele>188.0</ele><time>2026-04-25T13:07:34.092Z</time></trkpt><trkpt lat="45.718675" lon="10.78182"><ele>188.0</ele><time>2026-04-25T13:07:35.093Z</time></trkpt><trkpt lat="45.7186267" lon="10.7817283"><ele>188.0</ele><time>2026-04-25T13:07:36.092Z</time></trkpt><trkpt lat="45.718575" lon="10.7816467"><ele>188.0</ele><time>2026-04-25T13:07:37.093Z</time></trkpt><trkpt lat="45.71852" lon="10.781565"><ele>188.5</ele><time>2026-04-25T13:07:38.093Z</time></trkpt><trkpt lat="45.7184667" lon="10.7814817"><ele>189.0</ele><time>2026-04-25T13:07:39.093Z</time></trkpt><trkpt lat="45.718415" lon="10.781385"><ele>189.5</ele><time>2026-04-25T13:07:40.093Z</time></trkpt><trkpt lat="45.7183717" lon="10.781285"><ele>190.0</ele><time>2026-04-25T13:07:41.093Z</time></trkpt><trkpt lat="45.7183433" lon="10.7811917"><ele>190.5</ele><time>2026-04-25T13:07:42.093Z</time></trkpt><trkpt lat="45.7183317" lon="10.7810917"><ele>191.0</ele><time>2026-04-25T13:07:43.092Z</time></trkpt><trkpt lat="45.7183333" lon="10.7809367"><ele>188.0</ele><time>2026-04-25T13:07:45.092Z</time></trkpt><trkpt lat="45.7183283" lon="10.7808367"><ele>185.0</ele><time>2026-04-25T13:07:47.093Z</time></trkpt><trkpt lat="45.7182367" lon="10.78075"><ele>182.0</ele><time>2026-04-25T13:07:50.093Z</time></trkpt><trkpt lat="45.7181767" lon="10.7807117"><ele>179.0</ele><time>2026-04-25T13:07:51.093Z</time></trkpt><trkpt lat="45.7181083" lon="10.7806567"><ele>176.0</ele><time>2026-04-25T13:07:52.092Z</time></trkpt><trkpt lat="45.7180417" lon="10.7805767"><ele>173.0</ele><time>2026-04-25T13:07:53.092Z</time></trkpt><trkpt lat="45.7179833" lon="10.7804917"><ele>173.0</ele><time>2026-04-25T13:07:54.093Z</time></trkpt><trkpt lat="45.7179267" lon="10.7804067"><ele>173.0</ele><time>2026-04-25T13:07:55.093Z</time></trkpt><trkpt lat="45.7178783" lon="10.7803117"><ele>173.0</ele><time>2026-04-25T13:07:56.093Z</time></trkpt><trkpt lat="45.7178383" lon="10.7802383"><ele>173.0</ele><time>2026-04-25T13:07:57.093Z</time></trkpt><trkpt lat="45.7177933" lon="10.7801617"><ele>173.0</ele><time>2026-04-25T13:07:59.093Z</time></trkpt><trkpt lat="45.7177583" lon="10.7800767"><ele>173.0</ele><time>2026-04-25T13:08:03.093Z</time></trkpt><trkpt lat="45.7176867" lon="10.779915"><ele>174.0</ele><time>2026-04-25T13:08:05.093Z</time></trkpt><trkpt lat="45.7176467" lon="10.77982"><ele>175.0</ele><time>2026-04-25T13:08:06.093Z</time></trkpt><trkpt lat="45.7176133" lon="10.7797083"><ele>176.0</ele><time>2026-04-25T13:08:07.093Z</time></trkpt><trkpt lat="45.71759" lon="10.7796117"><ele>177.0</ele><time>2026-04-25T13:08:08.093Z</time></trkpt><trkpt lat="45.7175817" lon="10.779515"><ele>178.0</ele><time>2026-04-25T13:08:09.093Z</time></trkpt><trkpt lat="45.71754" lon="10.7793517"><ele>179.0</ele><time>2026-04-25T13:08:11.093Z</time></trkpt><trkpt lat="45.717445" lon="10.7792167"><ele>176.33333333333331</ele><time>2026-04-25T13:08:13.093Z</time></trkpt><trkpt lat="45.7173967" lon="10.77914"><ele>173.66666666666666</ele><time>2026-04-25T13:08:14.093Z</time></trkpt><trkpt lat="45.71736" lon="10.77905"><ele>171.0</ele><time>2026-04-25T13:08:15.093Z</time></trkpt><trkpt lat="45.7173383" lon="10.7789283"><ele>168.33333333333334</ele><time>2026-04-25T13:08:16.093Z</time></trkpt><trkpt lat="45.71733" lon="10.7787933"><ele>165.66666666666669</ele><time>2026-04-25T13:08:17.093Z</time></trkpt><trkpt lat="45.7173017" lon="10.778645"><ele>163.0</ele><time>2026-04-25T13:08:18.093Z</time></trkpt><trkpt lat="45.717265" lon="10.7784967"><ele>159.20000000000002</ele><time>2026-04-25T13:08:19.093Z</time></trkpt><trkpt lat="45.717225" lon="10.7783517"><ele>155.4</ele><time>2026-04-25T13:08:20.092Z</time></trkpt><trkpt lat="45.7171917" lon="10.7782133"><ele>151.60000000000002</ele><time>2026-04-25T13:08:21.093Z</time></trkpt><trkpt lat="45.71716" lon="10.7780767"><ele>147.8</ele><time>2026-04-25T13:08:22.093Z</time></trkpt><trkpt lat="45.717135" lon="10.7779467"><ele>144.0</ele><time>2026-04-25T13:08:23.092Z</time></trkpt><trkpt lat="45.7170967" lon="10.7778133"><ele>144.0</ele><time>2026-04-25T13:08:24.093Z</time></trkpt><trkpt lat="45.717055" lon="10.7776933"><ele>144.0</ele><time>2026-04-25T13:08:25.092Z</time></trkpt><trkpt lat="45.7170117" lon="10.77757"><ele>144.0</ele><time>2026-04-25T13:08:26.093Z</time></trkpt><trkpt lat="45.7169667" lon="10.7774483"><ele>144.0</ele><time>2026-04-25T13:08:27.093Z</time></trkpt><trkpt lat="45.7169233" lon="10.77733"><ele>144.0</ele><time>2026-04-25T13:08:28.093Z</time></trkpt><trkpt lat="45.71689" lon="10.777235"><ele>144.0</ele><time>2026-04-25T13:08:29.093Z</time></trkpt><trkpt lat="45.7168617" lon="10.77708"><ele>144.0</ele><time>2026-04-25T13:08:31.093Z</time></trkpt><trkpt lat="45.716855" lon="10.7769817"><ele>144.0</ele><time>2026-04-25T13:08:34.092Z</time></trkpt><trkpt lat="45.7168867" lon="10.7768933"><ele>144.0</ele><time>2026-04-25T13:08:37.093Z</time></trkpt><trkpt lat="45.7168617" lon="10.776795"><ele>144.0</ele><time>2026-04-25T13:08:40.093Z</time></trkpt><trkpt lat="45.7167767" lon="10.776715"><ele>144.0</ele><time>2026-04-25T13:09:10.092Z</time></trkpt><trkpt lat="45.7166933" lon="10.7766483"><ele>144.0</ele><time>2026-04-25T13:09:12.093Z</time></trkpt><trkpt lat="45.7166117" lon="10.7765583"><ele>144.0</ele><time>2026-04-25T13:09:14.093Z</time></trkpt><trkpt lat="45.716545" lon="10.7764933"><ele>144.0</ele><time>2026-04-25T13:09:16.092Z</time></trkpt><trkpt lat="45.7164917" lon="10.7764333"><ele>144.0</ele><time>2026-04-25T13:09:18.092Z</time></trkpt><trkpt lat="45.7164017" lon="10.7763767"><ele>144.0</ele><time>2026-04-25T13:09:20.092Z</time></trkpt><trkpt lat="45.7163183" lon="10.7763"><ele>144.0</ele><time>2026-04-25T13:09:22.093Z</time></trkpt><trkpt lat="45.7162583" lon="10.7761933"><ele>144.0</ele><time>2026-04-25T13:09:24.092Z</time></trkpt><trkpt lat="45.71623" lon="10.77603"><ele>144.0</ele><time>2026-04-25T13:09:26.093Z</time></trkpt><trkpt lat="45.7161883" lon="10.77594"><ele>144.0</ele><time>2026-04-25T13:09:27.093Z</time></trkpt><trkpt lat="45.7161433" lon="10.775845"><ele>144.0</ele><time>2026-04-25T13:09:28.092Z</time></trkpt><trkpt lat="45.716095" lon="10.77576"><ele>144.0</ele><time>2026-04-25T13:09:29.093Z</time></trkpt><trkpt lat="45.7160567" lon="10.7756883"><ele>144.0</ele><time>2026-04-25T13:09:30.093Z</time></trkpt><trkpt lat="45.716015" lon="10.77561"><ele>144.83333333333334</ele><time>2026-04-25T13:09:31.093Z</time></trkpt><trkpt lat="45.7159717" lon="10.7755383"><ele>145.66666666666666</ele><time>2026-04-25T13:09:32.093Z</time></trkpt><trkpt lat="45.715915" lon="10.7754667"><ele>146.5</ele><time>2026-04-25T13:09:33.093Z</time></trkpt><trkpt lat="45.7158483" lon="10.7753983"><ele>147.33333333333331</ele><time>2026-04-25T13:09:34.093Z</time></trkpt><trkpt lat="45.7157767" lon="10.7753117"><ele>148.16666666666666</ele><time>2026-04-25T13:09:35.093Z</time></trkpt><trkpt lat="45.7157" lon="10.7752383"><ele>149.0</ele><time>2026-04-25T13:09:36.093Z</time></trkpt><trkpt lat="45.7156333" lon="10.7751983"><ele>146.0</ele><time>2026-04-25T13:09:37.093Z</time></trkpt><trkpt lat="45.7155717" lon="10.7751583"><ele>143.0</ele><time>2026-04-25T13:09:38.093Z</time></trkpt><trkpt lat="45.7154717" lon="10.77509"><ele>140.0</ele><time>2026-04-25T13:09:40.093Z</time></trkpt><trkpt lat="45.7154083" lon="10.7749883"><ele>137.0</ele><time>2026-04-25T13:09:42.093Z</time></trkpt><trkpt lat="45.71536" lon="10.7748867"><ele>134.0</ele><time>2026-04-25T13:09:44.093Z</time></trkpt><trkpt lat="45.715325" lon="10.774785"><ele>131.0</ele><time>2026-04-25T13:09:46.092Z</time></trkpt><trkpt lat="45.7152833" lon="10.7746883"><ele>134.16666666666666</ele><time>2026-04-25T13:09:48.092Z</time></trkpt><trkpt lat="45.7152167" lon="10.7745883"><ele>137.33333333333331</ele><time>2026-04-25T13:09:50.093Z</time></trkpt><trkpt lat="45.7151617" lon="10.7745433"><ele>140.5</ele><time>2026-04-25T13:09:51.093Z</time></trkpt><trkpt lat="45.7150883" lon="10.7745017"><ele>143.66666666666666</ele><time>2026-04-25T13:09:52.092Z</time></trkpt><trkpt lat="45.7150117" lon="10.7744617"><ele>146.83333333333334</ele><time>2026-04-25T13:09:53.093Z</time></trkpt><trkpt lat="45.71494" lon="10.7744283"><ele>150.0</ele><time>2026-04-25T13:09:54.092Z</time></trkpt><trkpt lat="45.71488" lon="10.7743883"><ele>146.83333333333334</ele><time>2026-04-25T13:09:55.093Z</time></trkpt><trkpt lat="45.7148033" lon="10.774245"><ele>143.66666666666666</ele><time>2026-04-25T13:09:57.092Z</time></trkpt><trkpt lat="45.71478" lon="10.774155"><ele>140.5</ele><time>2026-04-25T13:09:58.092Z</time></trkpt><trkpt lat="45.7147617" lon="10.7740317"><ele>137.33333333333331</ele><time>2026-04-25T13:09:59.093Z</time></trkpt><trkpt lat="45.7147467" lon="10.773915"><ele>134.16666666666666</ele><time>2026-04-25T13:10:00.093Z</time></trkpt><trkpt lat="45.7147317" lon="10.7738183"><ele>131.0</ele><time>2026-04-25T13:10:01.093Z</time></trkpt><trkpt lat="45.7147" lon="10.7737217"><ele>131.0</ele><time>2026-04-25T13:10:02.093Z</time></trkpt><trkpt lat="45.7146517" lon="10.7736317"><ele>131.0</ele><time>2026-04-25T13:10:03.092Z</time></trkpt><trkpt lat="45.714605" lon="10.7735533"><ele>131.0</ele><time>2026-04-25T13:10:04.093Z</time></trkpt><trkpt lat="45.7145583" lon="10.77349"><ele>131.0</ele><time>2026-04-25T13:10:05.093Z</time></trkpt><trkpt lat="45.7143967" lon="10.7734283"><ele>131.0</ele><time>2026-04-25T13:10:08.093Z</time></trkpt><trkpt lat="45.7143267" lon="10.7734333"><ele>130.66666666666666</ele><time>2026-04-25T13:10:09.093Z</time></trkpt><trkpt lat="45.71425" lon="10.77342"><ele>130.33333333333331</ele><time>2026-04-25T13:10:10.092Z</time></trkpt><trkpt lat="45.7141733" lon="10.7734033"><ele>130.0</ele><time>2026-04-25T13:10:11.093Z</time></trkpt><trkpt lat="45.7140983" lon="10.7733633"><ele>129.66666666666666</ele><time>2026-04-25T13:10:12.093Z</time></trkpt><trkpt lat="45.714025" lon="10.773305"><ele>129.33333333333334</ele><time>2026-04-25T13:10:13.093Z</time></trkpt><trkpt lat="45.7139517" lon="10.773235"><ele>129.0</ele><time>2026-04-25T13:10:14.093Z</time></trkpt><trkpt lat="45.71389" lon="10.7731617"><ele>129.0</ele><time>2026-04-25T13:10:15.093Z</time></trkpt><trkpt lat="45.7138183" lon="10.7730933"><ele>129.0</ele><time>2026-04-25T13:10:16.093Z</time></trkpt><trkpt lat="45.713735" lon="10.77304"><ele>129.0</ele><time>2026-04-25T13:10:17.093Z</time></trkpt><trkpt lat="45.7136533" lon="10.7729867"><ele>129.0</ele><time>2026-04-25T13:10:18.093Z</time></trkpt><trkpt lat="45.713575" lon="10.772925"><ele>129.0</ele><time>2026-04-25T13:10:19.093Z</time></trkpt><trkpt lat="45.7134967" lon="10.7728633"><ele>129.0</ele><time>2026-04-25T13:10:20.093Z</time></trkpt><trkpt lat="45.713425" lon="10.7728067"><ele>128.33333333333334</ele><time>2026-04-25T13:10:21.092Z</time></trkpt><trkpt lat="45.7133533" lon="10.7727517"><ele>127.66666666666666</ele><time>2026-04-25T13:10:22.093Z</time></trkpt><trkpt lat="45.71328" lon="10.7726967"><ele>127.0</ele><time>2026-04-25T13:10:23.093Z</time></trkpt><trkpt lat="45.7132083" lon="10.7726467"><ele>126.33333333333333</ele><time>2026-04-25T13:10:24.093Z</time></trkpt><trkpt lat="45.7131367" lon="10.7726067"><ele>125.66666666666666</ele><time>2026-04-25T13:10:25.093Z</time></trkpt><trkpt lat="45.7130633" lon="10.77257"><ele>125.0</ele><time>2026-04-25T13:10:26.093Z</time></trkpt><trkpt lat="45.7130017" lon="10.772525"><ele>124.99999999999999</ele><time>2026-04-25T13:10:27.093Z</time></trkpt><trkpt lat="45.712945" lon="10.7724633"><ele>125.0</ele><time>2026-04-25T13:10:28.093Z</time></trkpt><trkpt lat="45.7128967" lon="10.77239"><ele>125.0</ele><time>2026-04-25T13:10:29.093Z</time></trkpt><trkpt lat="45.7128567" lon="10.7723117"><ele>125.0</ele><time>2026-04-25T13:10:30.093Z</time></trkpt><trkpt lat="45.7128167" lon="10.77223"><ele>124.99999999999999</ele><time>2026-04-25T13:10:31.092Z</time></trkpt><trkpt lat="45.7127383" lon="10.7721167"><ele>125.0</ele><time>2026-04-25T13:10:33.092Z</time></trkpt><trkpt lat="45.7126833" lon="10.7720617"><ele>124.4</ele><time>2026-04-25T13:10:34.093Z</time></trkpt><trkpt lat="45.712625" lon="10.77198"><ele>123.8</ele><time>2026-04-25T13:10:35.093Z</time></trkpt><trkpt lat="45.7125533" lon="10.7718933"><ele>123.19999999999999</ele><time>2026-04-25T13:10:36.093Z</time></trkpt><trkpt lat="45.71248" lon="10.77179"><ele>122.6</ele><time>2026-04-25T13:10:37.093Z</time></trkpt><trkpt lat="45.7123983" lon="10.7716867"><ele>122.0</ele><time>2026-04-25T13:10:38.093Z</time></trkpt><trkpt lat="45.7123083" lon="10.771585"><ele>122.0</ele><time>2026-04-25T13:10:39.093Z</time></trkpt><trkpt lat="45.7122267" lon="10.7714917"><ele>121.99999999999999</ele><time>2026-04-25T13:10:40.093Z</time></trkpt><trkpt lat="45.71214" lon="10.7714033"><ele>121.99999999999999</ele><time>2026-04-25T13:10:41.093Z</time></trkpt><trkpt lat="45.712045" lon="10.7713217"><ele>122.0</ele><time>2026-04-25T13:10:42.092Z</time></trkpt><trkpt lat="45.7119633" lon="10.7712467"><ele>122.0</ele><time>2026-04-25T13:10:43.093Z</time></trkpt><trkpt lat="45.7118833" lon="10.7711683"><ele>120.0</ele><time>2026-04-25T13:10:44.093Z</time></trkpt><trkpt lat="45.7118" lon="10.7710917"><ele>117.99999999999999</ele><time>2026-04-25T13:10:45.093Z</time></trkpt><trkpt lat="45.7117283" lon="10.7710017"><ele>115.99999999999999</ele><time>2026-04-25T13:10:46.093Z</time></trkpt><trkpt lat="45.7116733" lon="10.7708967"><ele>114.0</ele><time>2026-04-25T13:10:47.093Z</time></trkpt><trkpt lat="45.7116267" lon="10.7707867"><ele>112.0</ele><time>2026-04-25T13:10:48.093Z</time></trkpt><trkpt lat="45.7115967" lon="10.77068"><ele>112.00000000000001</ele><time>2026-04-25T13:10:49.093Z</time></trkpt><trkpt lat="45.711585" lon="10.77057"><ele>112.0</ele><time>2026-04-25T13:10:50.093Z</time></trkpt><trkpt lat="45.7115717" lon="10.7704567"><ele>112.0</ele><time>2026-04-25T13:10:51.093Z</time></trkpt><trkpt lat="45.7115567" lon="10.7703483"><ele>112.0</ele><time>2026-04-25T13:10:52.093Z</time></trkpt><trkpt lat="45.71152" lon="10.7702633"><ele>112.00000000000001</ele><time>2026-04-25T13:10:53.093Z</time></trkpt><trkpt lat="45.71145" lon="10.770185"><ele>112.0</ele><time>2026-04-25T13:10:54.092Z</time></trkpt><trkpt lat="45.7113617" lon="10.770115"><ele>111.6</ele><time>2026-04-25T13:10:55.093Z</time></trkpt><trkpt lat="45.711275" lon="10.77003"><ele>111.19999999999999</ele><time>2026-04-25T13:10:56.093Z</time></trkpt><trkpt lat="45.711185" lon="10.769935"><ele>110.8</ele><time>2026-04-25T13:10:57.093Z</time></trkpt><trkpt lat="45.7111033" lon="10.7698233"><ele>110.4</ele><time>2026-04-25T13:10:58.093Z</time></trkpt><trkpt lat="45.711045" lon="10.7697167"><ele>110.0</ele><time>2026-04-25T13:10:59.092Z</time></trkpt><trkpt lat="45.71097" lon="10.769595"><ele>110.0</ele><time>2026-04-25T13:11:00.093Z</time></trkpt><trkpt lat="45.71091" lon="10.76946"><ele>110.0</ele><time>2026-04-25T13:11:01.092Z</time></trkpt><trkpt lat="45.7108517" lon="10.7693367"><ele>110.0</ele><time>2026-04-25T13:11:02.093Z</time></trkpt><trkpt lat="45.7107867" lon="10.7692267"><ele>110.0</ele><time>2026-04-25T13:11:03.093Z</time></trkpt><trkpt lat="45.7107183" lon="10.7691167"><ele>110.0</ele><time>2026-04-25T13:11:04.093Z</time></trkpt><trkpt lat="45.7106533" lon="10.7690067"><ele>106.25</ele><time>2026-04-25T13:11:05.093Z</time></trkpt><trkpt lat="45.710585" lon="10.7688983"><ele>102.5</ele><time>2026-04-25T13:11:06.093Z</time></trkpt><trkpt lat="45.71051" lon="10.7687933"><ele>98.75</ele><time>2026-04-25T13:11:07.093Z</time></trkpt><trkpt lat="45.710375" lon="10.7685933"><ele>95.0</ele><time>2026-04-25T13:11:09.093Z</time></trkpt><trkpt lat="45.7102983" lon="10.7684983"><ele>93.0</ele><time>2026-04-25T13:11:10.092Z</time></trkpt><trkpt lat="45.7102167" lon="10.7684067"><ele>91.0</ele><time>2026-04-25T13:11:11.092Z</time></trkpt><trkpt lat="45.7101267" lon="10.7683283"><ele>89.0</ele><time>2026-04-25T13:11:12.093Z</time></trkpt><trkpt lat="45.7100383" lon="10.7682617"><ele>87.0</ele><time>2026-04-25T13:11:13.092Z</time></trkpt><trkpt lat="45.709955" lon="10.7682"><ele>85.0</ele><time>2026-04-25T13:11:14.093Z</time></trkpt><trkpt lat="45.70987" lon="10.7681517"><ele>85.0</ele><time>2026-04-25T13:11:15.093Z</time></trkpt><trkpt lat="45.7097917" lon="10.7681183"><ele>85.0</ele><time>2026-04-25T13:11:16.093Z</time></trkpt><trkpt lat="45.7097167" lon="10.7680933"><ele>85.0</ele><time>2026-04-25T13:11:17.092Z</time></trkpt><trkpt lat="45.709645" lon="10.768065"><ele>85.0</ele><time>2026-04-25T13:11:18.092Z</time></trkpt><trkpt lat="45.7095767" lon="10.768035"><ele>85.0</ele><time>2026-04-25T13:11:19.092Z</time></trkpt><trkpt lat="45.7095133" lon="10.76801"><ele>85.0</ele><time>2026-04-25T13:11:20.092Z</time></trkpt><trkpt lat="45.709415" lon="10.76799"><ele>85.0</ele><time>2026-04-25T13:11:22.093Z</time></trkpt><trkpt lat="45.70935" lon="10.7679483"><ele>92.0</ele><time>2026-04-25T13:11:25.093Z</time></trkpt></trkseg></trk></gpx>